N903LE KVBT-KTPA
Flight info
| Callsign | N903LE |
|---|---|
| Flight time | 4h 34m |
| Altitude | 9000 |
| Route | RZC LIT SQS MEI ACORI MAATY5 |
| Aircraft | AEST/L-SDFGRY/S |
Departure
| Time | 2026-05-05 00:39 |
|---|---|
| Airport | Bentonville Municipal-Louise M Thaden Field (KVBT) |
Arrival
| Time | 2026-05-05 05:14 |
|---|---|
| Airport | Tampa International Airport (KTPA) |
| Time | Latitude | Longitude | Altitude | Speed | Heading |
|---|---|---|---|---|---|
| 2026-05-05 00:08 | 36.35013 | -94.22138 | 1293 ft | 0 kts | 320° |
| 2026-05-05 00:12 | 36.35018 | -94.22141 | 1293 ft | 2 kts | 356° |
| 2026-05-05 00:12 | 36.35027 | -94.22128 | 1292 ft | 0 kts | 98° |
| 2026-05-05 00:37 | 36.35009 | -94.22050 | 1293 ft | 10 kts | 152° |
| 2026-05-05 00:37 | 36.34970 | -94.22023 | 1294 ft | 4 kts | 99° |
| 2026-05-05 00:37 | 36.34969 | -94.21986 | 1294 ft | 5 kts | 90° |
| 2026-05-05 00:37 | 36.34981 | -94.21940 | 1294 ft | 8 kts | 16° |
| 2026-05-05 00:38 | 36.35040 | -94.21938 | 1294 ft | 8 kts | 0° |
| 2026-05-05 00:38 | 36.35076 | -94.21937 | 1295 ft | 0 kts | 11° |
| 2026-05-05 00:38 | 36.35081 | -94.21926 | 1295 ft | 2 kts | 118° |
| 2026-05-05 00:38 | 36.34977 | -94.21931 | 1295 ft | 45 kts | 183° |
| 2026-05-05 00:39 | 36.34485 | -94.21934 | 1321 ft | 84 kts | 178° |
| 2026-05-05 00:39 | 36.33893 | -94.21921 | 1569 ft | 87 kts | 180° |
| 2026-05-05 00:39 | 36.33234 | -94.21884 | 1846 ft | 100 kts | 173° |
| 2026-05-05 00:39 | 36.32676 | -94.21356 | 2112 ft | 118 kts | 127° |
| 2026-05-05 00:40 | 36.32428 | -94.20319 | 2392 ft | 134 kts | 101° |
| 2026-05-05 00:40 | 36.32603 | -94.19130 | 2666 ft | 150 kts | 77° |
| 2026-05-05 00:40 | 36.33210 | -94.18012 | 2997 ft | 164 kts | 52° |
| 2026-05-05 00:40 | 36.34166 | -94.17161 | 3384 ft | 172 kts | 33° |
| 2026-05-05 00:41 | 36.35196 | -94.16356 | 3818 ft | 178 kts | 37° |
| 2026-05-05 00:41 | 36.36335 | -94.15727 | 4216 ft | 181 kts | 13° |
| 2026-05-05 00:41 | 36.37579 | -94.15480 | 4645 ft | 180 kts | 5° |
| 2026-05-05 00:41 | 36.38786 | -94.15247 | 5011 ft | 176 kts | 5° |
| 2026-05-05 00:42 | 36.40001 | -94.14977 | 5398 ft | 177 kts | 6° |
| 2026-05-05 00:42 | 36.41198 | -94.14664 | 5814 ft | 176 kts | 6° |
| 2026-05-05 00:42 | 36.42383 | -94.14302 | 6192 ft | 175 kts | 8° |
| 2026-05-05 00:42 | 36.43553 | -94.13890 | 6542 ft | 174 kts | 9° |
| 2026-05-05 00:43 | 36.44709 | -94.13467 | 6884 ft | 172 kts | 10° |
| 2026-05-05 00:43 | 36.45846 | -94.13029 | 7216 ft | 170 kts | 11° |
| 2026-05-05 00:43 | 36.46967 | -94.12570 | 7541 ft | 169 kts | 12° |
| 2026-05-05 00:43 | 36.48076 | -94.12094 | 7866 ft | 168 kts | 13° |
| 2026-05-05 00:44 | 36.49168 | -94.11591 | 8174 ft | 165 kts | 14° |
| 2026-05-05 00:44 | 36.50226 | -94.11061 | 8470 ft | 163 kts | 15° |
| 2026-05-05 00:44 | 36.51265 | -94.10511 | 8713 ft | 167 kts | 17° |
| 2026-05-05 00:44 | 36.52359 | -94.09896 | 8794 ft | 180 kts | 18° |
| 2026-05-05 00:45 | 36.53580 | -94.09305 | 8755 ft | 196 kts | 5° |
| 2026-05-05 00:45 | 36.54936 | -94.09437 | 8730 ft | 198 kts | 337° |
| 2026-05-05 00:45 | 36.56273 | -94.09887 | 8681 ft | 201 kts | 344° |
| 2026-05-05 00:45 | 36.57686 | -94.09917 | 8706 ft | 207 kts | 2° |
| 2026-05-05 00:46 | 36.59031 | -94.09252 | 8716 ft | 214 kts | 32° |
| 2026-05-05 00:46 | 36.59984 | -94.07823 | 8708 ft | 220 kts | 62° |
| 2026-05-05 00:46 | 36.60318 | -94.05962 | 8716 ft | 224 kts | 92° |
| 2026-05-05 00:46 | 36.59949 | -94.04099 | 8714 ft | 223 kts | 120° |
| 2026-05-05 00:47 | 36.58962 | -94.02661 | 8710 ft | 217 kts | 149° |
| 2026-05-05 00:47 | 36.57610 | -94.01926 | 8698 ft | 209 kts | 169° |
| 2026-05-05 00:47 | 36.35013 | -94.22138 | 1293 ft | 10 kts | 320° |
| 2026-05-05 00:47 | 36.35016 | -94.22157 | 1293 ft | 0 kts | 281° |
| 2026-05-05 00:52 | 36.35016 | -94.22158 | 1293 ft | 0 kts | 281° |
| 2026-05-05 00:53 | 36.35017 | -94.22159 | 1293 ft | 0 kts | 281° |
| 2026-05-05 00:54 | 36.35017 | -94.22160 | 1293 ft | 0 kts | 281° |
| 2026-05-05 00:55 | 36.35017 | -94.22161 | 1293 ft | 0 kts | 281° |
| 2026-05-05 00:56 | 36.35017 | -94.22162 | 1293 ft | 0 kts | 281° |
| 2026-05-05 00:57 | 36.35017 | -94.22163 | 1293 ft | 0 kts | 281° |
| 2026-05-05 01:08 | 36.35013 | -94.22138 | 1293 ft | 10 kts | 320° |
| 2026-05-05 01:18 | 36.35016 | -94.22140 | 1293 ft | 2 kts | 350° |
| 2026-05-05 01:18 | 36.35023 | -94.22078 | 1293 ft | 13 kts | 115° |
| 2026-05-05 01:18 | 36.34987 | -94.22042 | 1294 ft | 6 kts | 170° |
| 2026-05-05 01:18 | 36.34970 | -94.22026 | 1295 ft | 2 kts | 104° |
| 2026-05-05 01:19 | 36.34969 | -94.21988 | 1294 ft | 10 kts | 90° |
| 2026-05-05 01:19 | 36.34990 | -94.21939 | 1294 ft | 9 kts | 357° |
| 2026-05-05 01:19 | 36.35058 | -94.21938 | 1294 ft | 7 kts | 357° |
| 2026-05-05 01:19 | 36.35066 | -94.21936 | 1294 ft | 1 kts | 50° |
| 2026-05-05 01:20 | 36.35061 | -94.21924 | 1295 ft | 5 kts | 175° |
| 2026-05-05 01:20 | 36.35036 | -94.21930 | 1294 ft | 0 kts | 183° |
| 2026-05-05 01:20 | 36.35032 | -94.21930 | 1294 ft | 2 kts | 183° |
| 2026-05-05 01:20 | 36.35028 | -94.21931 | 1294 ft | 0 kts | 182° |
| 2026-05-05 01:23 | 36.34953 | -94.21932 | 1295 ft | 33 kts | 180° |
| 2026-05-05 01:23 | 36.34586 | -94.21935 | 1301 ft | 69 kts | 181° |
| 2026-05-05 01:24 | 36.34044 | -94.21944 | 1321 ft | 79 kts | 183° |
| 2026-05-05 01:24 | 36.33693 | -94.21964 | 1298 ft | 72 kts | 201° |
| 2026-05-05 01:24 | 36.35013 | -94.22138 | 1293 ft | 9 kts | 320° |
| 2026-05-05 01:24 | 36.34997 | -94.22151 | 1293 ft | 0 kts | 309° |
| 2026-05-05 01:25 | 36.35002 | -94.22170 | 1293 ft | 6 kts | 236° |
| 2026-05-05 01:25 | 36.34986 | -94.22167 | 1293 ft | 3 kts | 150° |
| 2026-05-05 01:26 | 36.34954 | -94.22131 | 1295 ft | 12 kts | 133° |
| 2026-05-05 01:26 | 36.34948 | -94.22095 | 1295 ft | 4 kts | 67° |
| 2026-05-05 01:26 | 36.34971 | -94.22057 | 1295 ft | 9 kts | 78° |
| 2026-05-05 01:26 | 36.34969 | -94.21971 | 1294 ft | 11 kts | 91° |
| 2026-05-05 01:27 | 36.35010 | -94.21938 | 1294 ft | 8 kts | 358° |
| 2026-05-05 01:27 | 36.35036 | -94.21921 | 1294 ft | 5 kts | 160° |
| 2026-05-05 01:27 | 36.34909 | -94.21932 | 1296 ft | 48 kts | 180° |
| 2026-05-05 01:27 | 36.34402 | -94.21939 | 1314 ft | 89 kts | 178° |
| 2026-05-05 01:28 | 36.33750 | -94.21906 | 1456 ft | 100 kts | 173° |
| 2026-05-05 01:28 | 36.33070 | -94.21743 | 1791 ft | 104 kts | 162° |
| 2026-05-05 01:28 | 36.32346 | -94.21135 | 1705 ft | 146 kts | 132° |
| 2026-05-05 01:28 | 36.31817 | -94.19951 | 1889 ft | 166 kts | 109° |
| 2026-05-05 01:29 | 36.31707 | -94.18483 | 2171 ft | 176 kts | 88° |
| 2026-05-05 01:29 | 36.32087 | -94.17015 | 2424 ft | 182 kts | 82° |
| 2026-05-05 01:29 | 36.32199 | -94.15457 | 2745 ft | 179 kts | 104° |
| 2026-05-05 01:29 | 36.31845 | -94.14034 | 3112 ft | 169 kts | 134° |
| 2026-05-05 01:30 | 36.30970 | -94.13181 | 3449 ft | 157 kts | 168° |
| 2026-05-05 01:30 | 36.29922 | -94.13073 | 3730 ft | 149 kts | 183° |
| 2026-05-05 01:30 | 36.28900 | -94.12846 | 3930 ft | 152 kts | 162° |
| 2026-05-05 01:30 | 36.28035 | -94.12092 | 4140 ft | 157 kts | 141° |
| 2026-05-05 01:31 | 36.27406 | -94.10903 | 4325 ft | 171 kts | 127° |
| 2026-05-05 01:31 | 36.26770 | -94.09656 | 4637 ft | 170 kts | 143° |
| 2026-05-05 01:31 | 36.25882 | -94.08788 | 4901 ft | 161 kts | 157° |
| 2026-05-05 01:31 | 36.24976 | -94.07962 | 5105 ft | 164 kts | 148° |
| 2026-05-05 01:32 | 36.24173 | -94.06912 | 5274 ft | 172 kts | 137° |
| 2026-05-05 01:32 | 36.23485 | -94.05657 | 5460 ft | 179 kts | 131° |
| 2026-05-05 01:32 | 36.22847 | -94.04314 | 5645 ft | 182 kts | 129° |
| 2026-05-05 01:32 | 36.22200 | -94.02955 | 5827 ft | 184 kts | 129° |
| 2026-05-05 01:33 | 36.21546 | -94.01604 | 6147 ft | 179 kts | 130° |
| 2026-05-05 01:33 | 36.20898 | -94.00313 | 6464 ft | 175 kts | 131° |
| 2026-05-05 01:33 | 36.20239 | -93.99069 | 6740 ft | 171 kts | 133° |
| 2026-05-05 01:33 | 36.19562 | -93.97869 | 7005 ft | 169 kts | 134° |
| 2026-05-05 01:34 | 36.18859 | -93.96701 | 7281 ft | 170 kts | 136° |
| 2026-05-05 01:34 | 36.18131 | -93.95540 | 7586 ft | 172 kts | 137° |
| 2026-05-05 01:34 | 36.17380 | -93.94381 | 7898 ft | 173 kts | 137° |
| 2026-05-05 01:34 | 36.16613 | -93.93220 | 8213 ft | 175 kts | 137° |
| 2026-05-05 01:35 | 36.15839 | -93.92047 | 8521 ft | 177 kts | 136° |
| 2026-05-05 01:35 | 36.15076 | -93.90863 | 8750 ft | 178 kts | 135° |
| 2026-05-05 01:35 | 36.14287 | -93.89602 | 8750 ft | 192 kts | 133° |
| 2026-05-05 01:35 | 36.13464 | -93.88251 | 8744 ft | 201 kts | 133° |
| 2026-05-05 01:36 | 36.12613 | -93.86834 | 8745 ft | 209 kts | 132° |
| 2026-05-05 01:36 | 36.11734 | -93.85371 | 8745 ft | 215 kts | 132° |
| 2026-05-05 01:36 | 36.10827 | -93.83865 | 8742 ft | 221 kts | 132° |
| 2026-05-05 01:36 | 36.09905 | -93.82342 | 8730 ft | 217 kts | 132° |
| 2026-05-05 01:37 | 36.09029 | -93.80883 | 8738 ft | 204 kts | 132° |
| 2026-05-05 01:37 | 36.08164 | -93.79449 | 8729 ft | 212 kts | 132° |
| 2026-05-05 01:37 | 36.07261 | -93.77979 | 8747 ft | 217 kts | 132° |
| 2026-05-05 01:37 | 36.06337 | -93.76482 | 8738 ft | 222 kts | 132° |
| 2026-05-05 01:38 | 36.05389 | -93.74958 | 8727 ft | 226 kts | 132° |
| 2026-05-05 01:38 | 36.04433 | -93.73411 | 8734 ft | 226 kts | 132° |
| 2026-05-05 01:38 | 36.03480 | -93.71860 | 8737 ft | 227 kts | 132° |
| 2026-05-05 01:38 | 36.02526 | -93.70302 | 8733 ft | 227 kts | 132° |
| 2026-05-05 01:39 | 36.01568 | -93.68741 | 8730 ft | 228 kts | 132° |
| 2026-05-05 01:39 | 36.00605 | -93.67184 | 8730 ft | 228 kts | 132° |
| 2026-05-05 01:39 | 35.99634 | -93.65625 | 8734 ft | 229 kts | 132° |
| 2026-05-05 01:39 | 35.98670 | -93.64073 | 8738 ft | 228 kts | 132° |
| 2026-05-05 01:40 | 35.97708 | -93.62515 | 8736 ft | 228 kts | 132° |
| 2026-05-05 01:40 | 35.96746 | -93.60957 | 8734 ft | 228 kts | 132° |
| 2026-05-05 01:40 | 35.95796 | -93.59418 | 8728 ft | 229 kts | 132° |
| 2026-05-05 01:40 | 35.94821 | -93.57842 | 8738 ft | 227 kts | 132° |
| 2026-05-05 01:41 | 35.93878 | -93.56379 | 8737 ft | 223 kts | 131° |
| 2026-05-05 01:41 | 35.92916 | -93.54814 | 8724 ft | 228 kts | 131° |
| 2026-05-05 01:41 | 35.91977 | -93.53230 | 8731 ft | 230 kts | 131° |
| 2026-05-05 01:41 | 35.90880 | -93.51823 | 8746 ft | 227 kts | 153° |
| 2026-05-05 01:42 | 35.89425 | -93.51201 | 8746 ft | 219 kts | 181° |
| 2026-05-05 01:42 | 35.87938 | -93.51389 | 8708 ft | 212 kts | 198° |
| 2026-05-05 01:42 | 35.86524 | -93.51730 | 8721 ft | 205 kts | 195° |
| 2026-05-05 01:42 | 35.85106 | -93.51890 | 8726 ft | 203 kts | 188° |
| 2026-05-05 01:43 | 35.83687 | -93.51819 | 8730 ft | 206 kts | 178° |
| 2026-05-05 01:43 | 35.82332 | -93.51304 | 8739 ft | 209 kts | 161° |
| 2026-05-05 01:43 | 35.81160 | -93.50252 | 8749 ft | 212 kts | 136° |
| 2026-05-05 01:43 | 35.80291 | -93.48734 | 8756 ft | 221 kts | 129° |
| 2026-05-05 01:44 | 35.79424 | -93.47145 | 8748 ft | 226 kts | 129° |
| 2026-05-05 01:44 | 35.78520 | -93.45555 | 8731 ft | 228 kts | 130° |
| 2026-05-05 01:44 | 35.77593 | -93.43985 | 8751 ft | 226 kts | 131° |
| 2026-05-05 01:44 | 35.76574 | -93.42504 | 8752 ft | 228 kts | 143° |
| 2026-05-05 01:45 | 35.75386 | -93.41249 | 8737 ft | 226 kts | 143° |
| 2026-05-05 01:45 | 35.74304 | -93.39847 | 8741 ft | 227 kts | 135° |
| 2026-05-05 01:45 | 35.73326 | -93.38316 | 8757 ft | 227 kts | 132° |
| 2026-05-05 01:45 | 35.72378 | -93.36758 | 8751 ft | 227 kts | 131° |
| 2026-05-05 01:46 | 35.71421 | -93.35210 | 8749 ft | 227 kts | 133° |
| 2026-05-05 01:46 | 35.70440 | -93.33686 | 8749 ft | 227 kts | 134° |
| 2026-05-05 01:46 | 35.69438 | -93.32190 | 8758 ft | 226 kts | 136° |
| 2026-05-05 01:46 | 35.68404 | -93.30728 | 8753 ft | 226 kts | 137° |
| 2026-05-05 01:47 | 35.67345 | -93.29307 | 8760 ft | 225 kts | 139° |
| 2026-05-05 01:47 | 35.66258 | -93.27912 | 8749 ft | 226 kts | 140° |
| 2026-05-05 01:47 | 35.65166 | -93.26535 | 8753 ft | 225 kts | 140° |
| 2026-05-05 01:47 | 35.64082 | -93.25149 | 8755 ft | 225 kts | 139° |
| 2026-05-05 01:48 | 35.63015 | -93.23747 | 8750 ft | 225 kts | 138° |
| 2026-05-05 01:48 | 35.61957 | -93.22328 | 8752 ft | 226 kts | 137° |
| 2026-05-05 01:48 | 35.60906 | -93.20889 | 8758 ft | 227 kts | 137° |
| 2026-05-05 01:48 | 35.59856 | -93.19443 | 8759 ft | 228 kts | 137° |
| 2026-05-05 01:49 | 35.58803 | -93.17985 | 8762 ft | 228 kts | 137° |
| 2026-05-05 01:49 | 35.57739 | -93.16534 | 8759 ft | 228 kts | 138° |
| 2026-05-05 01:49 | 35.56668 | -93.15101 | 8764 ft | 227 kts | 139° |
| 2026-05-05 01:49 | 35.55595 | -93.13680 | 8769 ft | 227 kts | 139° |
| 2026-05-05 01:50 | 35.54520 | -93.12260 | 8762 ft | 227 kts | 139° |
| 2026-05-05 01:50 | 35.53449 | -93.10838 | 8770 ft | 227 kts | 138° |
| 2026-05-05 01:50 | 35.52377 | -93.09412 | 8767 ft | 227 kts | 138° |
| 2026-05-05 01:50 | 35.51310 | -93.07988 | 8765 ft | 227 kts | 138° |
| 2026-05-05 01:51 | 35.50259 | -93.06572 | 8766 ft | 228 kts | 138° |
| 2026-05-05 01:51 | 35.49179 | -93.05117 | 8763 ft | 228 kts | 138° |
| 2026-05-05 01:51 | 35.48095 | -93.03697 | 8767 ft | 227 kts | 137° |
| 2026-05-05 01:51 | 35.47016 | -93.02276 | 8770 ft | 228 kts | 137° |
| 2026-05-05 01:52 | 35.45962 | -93.00861 | 8764 ft | 228 kts | 137° |
| 2026-05-05 01:52 | 35.44909 | -92.99409 | 8770 ft | 228 kts | 137° |
| 2026-05-05 01:52 | 35.43836 | -92.97948 | 8770 ft | 228 kts | 137° |
| 2026-05-05 01:52 | 35.42778 | -92.96536 | 8770 ft | 228 kts | 138° |
| 2026-05-05 01:53 | 35.41701 | -92.95109 | 8773 ft | 228 kts | 138° |
| 2026-05-05 01:53 | 35.40621 | -92.93681 | 8771 ft | 228 kts | 138° |
| 2026-05-05 01:53 | 35.39540 | -92.92251 | 8771 ft | 228 kts | 138° |
| 2026-05-05 01:53 | 35.38461 | -92.90821 | 8771 ft | 229 kts | 138° |
| 2026-05-05 01:54 | 35.37383 | -92.89390 | 8773 ft | 228 kts | 138° |
| 2026-05-05 01:54 | 35.36309 | -92.87964 | 8773 ft | 227 kts | 137° |
| 2026-05-05 01:54 | 35.35236 | -92.86536 | 8775 ft | 228 kts | 137° |
| 2026-05-05 01:54 | 35.34168 | -92.85109 | 8773 ft | 227 kts | 137° |
| 2026-05-05 01:55 | 35.33100 | -92.83682 | 8775 ft | 227 kts | 137° |
| 2026-05-05 01:55 | 35.32023 | -92.82254 | 8772 ft | 228 kts | 138° |
| 2026-05-05 01:55 | 35.30946 | -92.80830 | 8773 ft | 228 kts | 138° |
| 2026-05-05 01:55 | 35.29873 | -92.79402 | 8776 ft | 228 kts | 138° |
| 2026-05-05 01:56 | 35.28798 | -92.77974 | 8774 ft | 228 kts | 138° |
| 2026-05-05 01:56 | 35.27723 | -92.76554 | 8772 ft | 227 kts | 138° |
| 2026-05-05 01:56 | 35.26646 | -92.75127 | 8775 ft | 229 kts | 138° |
| 2026-05-05 01:56 | 35.25564 | -92.73695 | 8780 ft | 229 kts | 138° |
| 2026-05-05 01:57 | 35.24483 | -92.72268 | 8780 ft | 229 kts | 138° |
| 2026-05-05 01:57 | 35.23402 | -92.70841 | 8781 ft | 228 kts | 138° |
| 2026-05-05 01:57 | 35.22329 | -92.69416 | 8781 ft | 228 kts | 138° |
| 2026-05-05 01:57 | 35.21256 | -92.67988 | 8771 ft | 228 kts | 138° |
| 2026-05-05 01:58 | 35.20168 | -92.66569 | 8782 ft | 230 kts | 138° |
| 2026-05-05 01:58 | 35.19082 | -92.65166 | 8780 ft | 230 kts | 137° |
| 2026-05-05 01:58 | 35.17994 | -92.63732 | 8781 ft | 230 kts | 137° |
| 2026-05-05 01:58 | 35.16910 | -92.62290 | 8780 ft | 230 kts | 137° |
| 2026-05-05 01:59 | 35.15823 | -92.60849 | 8780 ft | 230 kts | 137° |
| 2026-05-05 01:59 | 35.14738 | -92.59406 | 8783 ft | 230 kts | 137° |
| 2026-05-05 01:59 | 35.13652 | -92.57961 | 8782 ft | 231 kts | 137° |
| 2026-05-05 01:59 | 35.12563 | -92.56518 | 8781 ft | 231 kts | 137° |
| 2026-05-05 02:00 | 35.11474 | -92.55077 | 8782 ft | 231 kts | 137° |
| 2026-05-05 02:00 | 35.10381 | -92.53638 | 8782 ft | 231 kts | 137° |
| 2026-05-05 02:00 | 35.09289 | -92.52203 | 8781 ft | 231 kts | 137° |
| 2026-05-05 02:00 | 35.08211 | -92.50788 | 8782 ft | 231 kts | 137° |
| 2026-05-05 02:01 | 35.07104 | -92.49335 | 8782 ft | 231 kts | 137° |
| 2026-05-05 02:01 | 35.06012 | -92.47902 | 8779 ft | 231 kts | 137° |
| 2026-05-05 02:01 | 35.04919 | -92.46467 | 8782 ft | 231 kts | 137° |
| 2026-05-05 02:01 | 35.03840 | -92.45048 | 8782 ft | 231 kts | 137° |
| 2026-05-05 02:02 | 35.02744 | -92.43608 | 8782 ft | 231 kts | 137° |
| 2026-05-05 02:02 | 35.01650 | -92.42171 | 8783 ft | 231 kts | 137° |
| 2026-05-05 02:02 | 35.00558 | -92.40734 | 8783 ft | 231 kts | 137° |
| 2026-05-05 02:02 | 34.99466 | -92.39301 | 8784 ft | 231 kts | 137° |
| 2026-05-05 02:03 | 34.98372 | -92.37871 | 8785 ft | 230 kts | 137° |
| 2026-05-05 02:03 | 34.97277 | -92.36443 | 8785 ft | 231 kts | 137° |
| 2026-05-05 02:03 | 34.96179 | -92.35008 | 8796 ft | 232 kts | 137° |
| 2026-05-05 02:03 | 34.95081 | -92.33569 | 8800 ft | 231 kts | 137° |
| 2026-05-05 02:04 | 34.93986 | -92.32133 | 8801 ft | 231 kts | 137° |
| 2026-05-05 02:04 | 34.92906 | -92.30711 | 8800 ft | 232 kts | 137° |
| 2026-05-05 02:04 | 34.91808 | -92.29270 | 8799 ft | 232 kts | 137° |
| 2026-05-05 02:04 | 34.90692 | -92.27837 | 8800 ft | 234 kts | 137° |
| 2026-05-05 02:05 | 34.89563 | -92.26399 | 8800 ft | 234 kts | 137° |
| 2026-05-05 02:05 | 34.88445 | -92.24956 | 8800 ft | 234 kts | 136° |
| 2026-05-05 02:05 | 34.87338 | -92.23501 | 8800 ft | 234 kts | 136° |
| 2026-05-05 02:05 | 34.86238 | -92.22044 | 8800 ft | 234 kts | 136° |
| 2026-05-05 02:06 | 34.85138 | -92.20585 | 8799 ft | 234 kts | 136° |
| 2026-05-05 02:06 | 34.84033 | -92.19122 | 8803 ft | 234 kts | 136° |
| 2026-05-05 02:06 | 34.82928 | -92.17671 | 8801 ft | 234 kts | 136° |
| 2026-05-05 02:06 | 34.81818 | -92.16223 | 8800 ft | 234 kts | 137° |
| 2026-05-05 02:07 | 34.80701 | -92.14781 | 8800 ft | 234 kts | 137° |
| 2026-05-05 02:07 | 34.79594 | -92.13330 | 8801 ft | 234 kts | 135° |
| 2026-05-05 02:07 | 34.78538 | -92.11860 | 8801 ft | 234 kts | 134° |
| 2026-05-05 02:07 | 34.77497 | -92.10342 | 8802 ft | 234 kts | 133° |
| 2026-05-05 02:08 | 34.76464 | -92.08810 | 8800 ft | 234 kts | 132° |
| 2026-05-05 02:08 | 34.75433 | -92.07283 | 8803 ft | 234 kts | 133° |
| 2026-05-05 02:08 | 34.74389 | -92.05753 | 8803 ft | 234 kts | 133° |
| 2026-05-05 02:08 | 34.73339 | -92.04231 | 8804 ft | 234 kts | 133° |
| 2026-05-05 02:09 | 34.72286 | -92.02718 | 8806 ft | 234 kts | 133° |
| 2026-05-05 02:09 | 34.71232 | -92.01211 | 8801 ft | 234 kts | 134° |
| 2026-05-05 02:09 | 34.70175 | -91.99707 | 8809 ft | 234 kts | 134° |
| 2026-05-05 02:09 | 34.69115 | -91.98210 | 8810 ft | 234 kts | 134° |
| 2026-05-05 02:10 | 34.68053 | -91.96715 | 8813 ft | 234 kts | 134° |
| 2026-05-05 02:10 | 34.66993 | -91.95215 | 8813 ft | 234 kts | 134° |
| 2026-05-05 02:10 | 34.65934 | -91.93712 | 8815 ft | 234 kts | 134° |
| 2026-05-05 02:10 | 34.64878 | -91.92213 | 8816 ft | 234 kts | 134° |
| 2026-05-05 02:11 | 34.63823 | -91.90709 | 8816 ft | 234 kts | 134° |
| 2026-05-05 02:11 | 34.62774 | -91.89224 | 8820 ft | 235 kts | 134° |
| 2026-05-05 02:11 | 34.61712 | -91.87719 | 8822 ft | 235 kts | 134° |
| 2026-05-05 02:11 | 34.60650 | -91.86212 | 8828 ft | 235 kts | 133° |
| 2026-05-05 02:12 | 34.59590 | -91.84703 | 8827 ft | 235 kts | 133° |
| 2026-05-05 02:12 | 34.57470 | -91.81688 | 8828 ft | 234 kts | 133° |
| 2026-05-05 02:12 | 34.56409 | -91.80188 | 8834 ft | 234 kts | 134° |
| 2026-05-05 02:13 | 34.55345 | -91.78684 | 8836 ft | 234 kts | 134° |
| 2026-05-05 02:13 | 34.54644 | -91.77692 | 8828 ft | 234 kts | 133° |
| 2026-05-05 02:13 | 34.53583 | -91.76192 | 8828 ft | 234 kts | 134° |
| 2026-05-05 02:13 | 34.52521 | -91.74690 | 8829 ft | 234 kts | 134° |
| 2026-05-05 02:14 | 34.51462 | -91.73191 | 8826 ft | 234 kts | 133° |
| 2026-05-05 02:14 | 34.50400 | -91.71686 | 8829 ft | 234 kts | 134° |
| 2026-05-05 02:14 | 34.49339 | -91.70186 | 8826 ft | 234 kts | 134° |
| 2026-05-05 02:14 | 34.48276 | -91.68688 | 8827 ft | 234 kts | 134° |
| 2026-05-05 02:15 | 34.47214 | -91.67190 | 8827 ft | 234 kts | 134° |
| 2026-05-05 02:15 | 34.46151 | -91.65694 | 8824 ft | 234 kts | 134° |
| 2026-05-05 02:15 | 34.45087 | -91.64198 | 8835 ft | 234 kts | 134° |
| 2026-05-05 02:15 | 34.44024 | -91.62700 | 8836 ft | 234 kts | 133° |
| 2026-05-05 02:16 | 34.42965 | -91.61203 | 8836 ft | 234 kts | 133° |
| 2026-05-05 02:16 | 34.41904 | -91.59705 | 8840 ft | 234 kts | 134° |
| 2026-05-05 02:16 | 34.40857 | -91.58229 | 8843 ft | 234 kts | 134° |
| 2026-05-05 02:16 | 34.39790 | -91.56730 | 8843 ft | 234 kts | 134° |
| 2026-05-05 02:17 | 34.38727 | -91.55238 | 8840 ft | 234 kts | 134° |
| 2026-05-05 02:17 | 34.37664 | -91.53744 | 8838 ft | 234 kts | 134° |
| 2026-05-05 02:17 | 34.36601 | -91.52253 | 8850 ft | 232 kts | 134° |
| 2026-05-05 02:17 | 34.35549 | -91.50771 | 8855 ft | 232 kts | 134° |
| 2026-05-05 02:18 | 34.34495 | -91.49290 | 8852 ft | 232 kts | 134° |
| 2026-05-05 02:18 | 34.33444 | -91.47810 | 8856 ft | 232 kts | 134° |
| 2026-05-05 02:18 | 34.32390 | -91.46329 | 8850 ft | 232 kts | 134° |
| 2026-05-05 02:18 | 34.31347 | -91.44868 | 8846 ft | 232 kts | 134° |
| 2026-05-05 02:19 | 34.30288 | -91.43390 | 8849 ft | 233 kts | 134° |
| 2026-05-05 02:19 | 34.29230 | -91.41912 | 8851 ft | 232 kts | 134° |
| 2026-05-05 02:19 | 34.28174 | -91.40434 | 8860 ft | 232 kts | 134° |
| 2026-05-05 02:19 | 34.27115 | -91.38959 | 8852 ft | 232 kts | 134° |
| 2026-05-05 02:20 | 34.26054 | -91.37478 | 8853 ft | 233 kts | 134° |
| 2026-05-05 02:20 | 34.24998 | -91.35997 | 8852 ft | 233 kts | 134° |
| 2026-05-05 02:20 | 34.23943 | -91.34514 | 8860 ft | 233 kts | 134° |
| 2026-05-05 02:20 | 34.22884 | -91.33030 | 8854 ft | 233 kts | 134° |
| 2026-05-05 02:21 | 34.21825 | -91.31547 | 8855 ft | 233 kts | 134° |
| 2026-05-05 02:21 | 34.20763 | -91.30066 | 8847 ft | 233 kts | 134° |
| 2026-05-05 02:21 | 34.19702 | -91.28595 | 8853 ft | 232 kts | 134° |
| 2026-05-05 02:21 | 34.18641 | -91.27124 | 8861 ft | 232 kts | 134° |
| 2026-05-05 02:22 | 34.17583 | -91.25648 | 8858 ft | 233 kts | 134° |
| 2026-05-05 02:22 | 34.16523 | -91.24166 | 8858 ft | 233 kts | 134° |
| 2026-05-05 02:22 | 34.15464 | -91.22686 | 8855 ft | 233 kts | 134° |
| 2026-05-05 02:22 | 34.14404 | -91.21206 | 8864 ft | 233 kts | 134° |
| 2026-05-05 02:23 | 34.13347 | -91.19728 | 8860 ft | 233 kts | 134° |
| 2026-05-05 02:23 | 34.12288 | -91.18249 | 8860 ft | 233 kts | 134° |
| 2026-05-05 02:23 | 34.11228 | -91.16776 | 8861 ft | 233 kts | 134° |
| 2026-05-05 02:23 | 34.10165 | -91.15302 | 8864 ft | 233 kts | 134° |
| 2026-05-05 02:24 | 34.09121 | -91.13840 | 8865 ft | 226 kts | 134° |
| 2026-05-05 02:24 | 34.08097 | -91.12399 | 8864 ft | 227 kts | 134° |
| 2026-05-05 02:24 | 34.07062 | -91.10964 | 8864 ft | 227 kts | 135° |
| 2026-05-05 02:24 | 34.06037 | -91.09552 | 8865 ft | 227 kts | 135° |
| 2026-05-05 02:25 | 34.04982 | -91.08104 | 8864 ft | 227 kts | 135° |
| 2026-05-05 02:25 | 34.03956 | -91.06695 | 8870 ft | 226 kts | 135° |
| 2026-05-05 02:25 | 34.02921 | -91.05264 | 8866 ft | 226 kts | 134° |
| 2026-05-05 02:25 | 34.01889 | -91.03829 | 8868 ft | 226 kts | 134° |
| 2026-05-05 02:26 | 34.00858 | -91.02395 | 8869 ft | 226 kts | 134° |
| 2026-05-05 02:26 | 33.99828 | -91.00963 | 8872 ft | 226 kts | 134° |
| 2026-05-05 02:26 | 33.98795 | -90.99532 | 8878 ft | 227 kts | 134° |
| 2026-05-05 02:26 | 33.97757 | -90.98101 | 8873 ft | 227 kts | 135° |
| 2026-05-05 02:27 | 33.96718 | -90.96668 | 8874 ft | 227 kts | 134° |
| 2026-05-05 02:27 | 33.95684 | -90.95238 | 8872 ft | 227 kts | 134° |
| 2026-05-05 02:27 | 33.94646 | -90.93804 | 8861 ft | 227 kts | 134° |
| 2026-05-05 02:27 | 33.93607 | -90.92373 | 8857 ft | 227 kts | 134° |
| 2026-05-05 02:28 | 33.92569 | -90.90939 | 8858 ft | 227 kts | 134° |
| 2026-05-05 02:28 | 33.91531 | -90.89503 | 8855 ft | 227 kts | 134° |
| 2026-05-05 02:28 | 33.90497 | -90.88067 | 8854 ft | 227 kts | 134° |
| 2026-05-05 02:28 | 33.89459 | -90.86631 | 8854 ft | 227 kts | 134° |
| 2026-05-05 02:29 | 33.88418 | -90.85198 | 8853 ft | 227 kts | 134° |
| 2026-05-05 02:29 | 33.87377 | -90.83765 | 8852 ft | 227 kts | 134° |
| 2026-05-05 02:29 | 33.86335 | -90.82332 | 8850 ft | 227 kts | 134° |
| 2026-05-05 02:29 | 33.85307 | -90.80921 | 8848 ft | 227 kts | 134° |
| 2026-05-05 02:30 | 33.84266 | -90.79490 | 8845 ft | 227 kts | 134° |
| 2026-05-05 02:30 | 33.83229 | -90.78059 | 8846 ft | 227 kts | 134° |
| 2026-05-05 02:30 | 33.82188 | -90.76628 | 8845 ft | 227 kts | 134° |
| 2026-05-05 02:30 | 33.81165 | -90.75207 | 8847 ft | 224 kts | 134° |
| 2026-05-05 02:31 | 33.80145 | -90.73791 | 8847 ft | 224 kts | 135° |
| 2026-05-05 02:31 | 33.79120 | -90.72382 | 8847 ft | 224 kts | 135° |
| 2026-05-05 02:31 | 33.78090 | -90.70977 | 8846 ft | 224 kts | 135° |
| 2026-05-05 02:31 | 33.77062 | -90.69575 | 8846 ft | 223 kts | 135° |
| 2026-05-05 02:32 | 33.76033 | -90.68173 | 8846 ft | 223 kts | 135° |
| 2026-05-05 02:32 | 33.75021 | -90.66791 | 8847 ft | 223 kts | 135° |
| 2026-05-05 02:32 | 33.73994 | -90.65385 | 8881 ft | 223 kts | 135° |
| 2026-05-05 02:32 | 33.72968 | -90.63980 | 8882 ft | 223 kts | 135° |
| 2026-05-05 02:33 | 33.71945 | -90.62576 | 8881 ft | 223 kts | 135° |
| 2026-05-05 02:33 | 33.70921 | -90.61173 | 8882 ft | 223 kts | 135° |
| 2026-05-05 02:33 | 33.69898 | -90.59765 | 8882 ft | 224 kts | 135° |
| 2026-05-05 02:33 | 33.68873 | -90.58356 | 8882 ft | 224 kts | 135° |
| 2026-05-05 02:34 | 33.67842 | -90.56952 | 8875 ft | 225 kts | 135° |
| 2026-05-05 02:34 | 33.66805 | -90.55548 | 8885 ft | 225 kts | 135° |
| 2026-05-05 02:34 | 33.65771 | -90.54140 | 8885 ft | 225 kts | 134° |
| 2026-05-05 02:34 | 33.64741 | -90.52728 | 8884 ft | 225 kts | 134° |
| 2026-05-05 02:35 | 33.63712 | -90.51319 | 8885 ft | 224 kts | 134° |
| 2026-05-05 02:35 | 33.62682 | -90.49909 | 8884 ft | 225 kts | 134° |
| 2026-05-05 02:35 | 33.61651 | -90.48498 | 8884 ft | 225 kts | 134° |
| 2026-05-05 02:35 | 33.60630 | -90.47104 | 8885 ft | 225 kts | 134° |
| 2026-05-05 02:36 | 33.59597 | -90.45694 | 8884 ft | 225 kts | 134° |
| 2026-05-05 02:36 | 33.58564 | -90.44281 | 8885 ft | 225 kts | 134° |
| 2026-05-05 02:36 | 33.57529 | -90.42871 | 8885 ft | 225 kts | 134° |
| 2026-05-05 02:36 | 33.56493 | -90.41460 | 8884 ft | 225 kts | 134° |
| 2026-05-05 02:37 | 33.55458 | -90.40051 | 8884 ft | 225 kts | 135° |
| 2026-05-05 02:37 | 33.54420 | -90.38638 | 8886 ft | 225 kts | 135° |
| 2026-05-05 02:37 | 33.53392 | -90.37235 | 8887 ft | 223 kts | 135° |
| 2026-05-05 02:37 | 33.52371 | -90.35839 | 8887 ft | 223 kts | 135° |
| 2026-05-05 02:38 | 33.51346 | -90.34447 | 8886 ft | 223 kts | 135° |
| 2026-05-05 02:38 | 33.50317 | -90.33056 | 8884 ft | 223 kts | 135° |
| 2026-05-05 02:38 | 33.49287 | -90.31669 | 8885 ft | 223 kts | 135° |
| 2026-05-05 02:38 | 33.48259 | -90.30281 | 8884 ft | 223 kts | 135° |
| 2026-05-05 02:39 | 33.47232 | -90.28892 | 8890 ft | 223 kts | 135° |
| 2026-05-05 02:39 | 33.46209 | -90.27501 | 8889 ft | 223 kts | 135° |
| 2026-05-05 02:39 | 33.45189 | -90.26105 | 8886 ft | 223 kts | 134° |
| 2026-05-05 02:39 | 33.44175 | -90.24700 | 8884 ft | 223 kts | 134° |
| 2026-05-05 02:40 | 33.43165 | -90.23293 | 8885 ft | 223 kts | 134° |
| 2026-05-05 02:40 | 33.42154 | -90.21884 | 8881 ft | 223 kts | 134° |
| 2026-05-05 02:40 | 33.41143 | -90.20479 | 8884 ft | 223 kts | 134° |
| 2026-05-05 02:40 | 33.40130 | -90.19075 | 8885 ft | 223 kts | 134° |
| 2026-05-05 02:41 | 33.39118 | -90.17672 | 8885 ft | 222 kts | 134° |
| 2026-05-05 02:41 | 33.38118 | -90.16288 | 8886 ft | 223 kts | 134° |
| 2026-05-05 02:41 | 33.37104 | -90.14889 | 8883 ft | 223 kts | 134° |
| 2026-05-05 02:41 | 33.36088 | -90.13490 | 8882 ft | 223 kts | 134° |
| 2026-05-05 02:42 | 33.35072 | -90.12093 | 8884 ft | 223 kts | 134° |
| 2026-05-05 02:42 | 33.34056 | -90.10696 | 8881 ft | 223 kts | 134° |
| 2026-05-05 02:42 | 33.33040 | -90.09295 | 8882 ft | 223 kts | 134° |
| 2026-05-05 02:42 | 33.32023 | -90.07892 | 8882 ft | 223 kts | 134° |
| 2026-05-05 02:43 | 33.31007 | -90.06493 | 8882 ft | 223 kts | 134° |
| 2026-05-05 02:43 | 33.29992 | -90.05094 | 8881 ft | 223 kts | 134° |
| 2026-05-05 02:43 | 33.28977 | -90.03695 | 8881 ft | 223 kts | 134° |
| 2026-05-05 02:43 | 33.27963 | -90.02298 | 8881 ft | 223 kts | 134° |
| 2026-05-05 02:44 | 33.26948 | -90.00901 | 8880 ft | 223 kts | 134° |
| 2026-05-05 02:44 | 33.25932 | -89.99502 | 8859 ft | 223 kts | 134° |
| 2026-05-05 02:44 | 33.24918 | -89.98112 | 8857 ft | 221 kts | 135° |
| 2026-05-05 02:44 | 33.23908 | -89.96725 | 8862 ft | 221 kts | 135° |
| 2026-05-05 02:45 | 33.22896 | -89.95337 | 8853 ft | 220 kts | 135° |
| 2026-05-05 02:45 | 33.21947 | -89.94031 | 8856 ft | 206 kts | 135° |
| 2026-05-05 02:45 | 33.21007 | -89.92735 | 8865 ft | 207 kts | 135° |
| 2026-05-05 02:45 | 33.20062 | -89.91439 | 8862 ft | 207 kts | 135° |
| 2026-05-05 02:46 | 33.19113 | -89.90142 | 8864 ft | 207 kts | 135° |
| 2026-05-05 02:46 | 33.18162 | -89.88844 | 8861 ft | 208 kts | 135° |
| 2026-05-05 02:46 | 33.17211 | -89.87542 | 8865 ft | 208 kts | 135° |
| 2026-05-05 02:46 | 33.16263 | -89.86245 | 8865 ft | 208 kts | 135° |
| 2026-05-05 02:47 | 33.15312 | -89.84945 | 8862 ft | 208 kts | 135° |
| 2026-05-05 02:47 | 33.14361 | -89.83655 | 8874 ft | 204 kts | 135° |
| 2026-05-05 02:47 | 33.13418 | -89.82371 | 8863 ft | 207 kts | 135° |
| 2026-05-05 02:47 | 33.12466 | -89.81068 | 8873 ft | 211 kts | 134° |
| 2026-05-05 02:48 | 33.11491 | -89.79733 | 8870 ft | 216 kts | 134° |
| 2026-05-05 02:48 | 33.10495 | -89.78370 | 8865 ft | 219 kts | 134° |
| 2026-05-05 02:48 | 33.09491 | -89.77008 | 8998 ft | 213 kts | 134° |
| 2026-05-05 02:48 | 33.08511 | -89.75687 | 8864 ft | 213 kts | 134° |
| 2026-05-05 02:49 | 33.07580 | -89.74303 | 8887 ft | 214 kts | 134° |
| 2026-05-05 02:49 | 33.06628 | -89.72929 | 8895 ft | 216 kts | 136° |
| 2026-05-05 02:49 | 33.05641 | -89.71580 | 8885 ft | 216 kts | 137° |
| 2026-05-05 02:49 | 33.04630 | -89.70255 | 8889 ft | 216 kts | 138° |
| 2026-05-05 02:50 | 33.03613 | -89.68938 | 8867 ft | 216 kts | 138° |
| 2026-05-05 02:50 | 33.02600 | -89.67616 | 8864 ft | 216 kts | 138° |
| 2026-05-05 02:50 | 33.01595 | -89.66277 | 8864 ft | 217 kts | 137° |
| 2026-05-05 02:50 | 33.00601 | -89.64921 | 8862 ft | 217 kts | 136° |
| 2026-05-05 02:51 | 32.99612 | -89.63560 | 8864 ft | 217 kts | 136° |
| 2026-05-05 02:51 | 32.98623 | -89.62197 | 8871 ft | 218 kts | 136° |
| 2026-05-05 02:51 | 32.97627 | -89.60830 | 8870 ft | 219 kts | 136° |
| 2026-05-05 02:51 | 32.96640 | -89.59478 | 8866 ft | 219 kts | 136° |
| 2026-05-05 02:52 | 32.95624 | -89.58088 | 8877 ft | 220 kts | 136° |
| 2026-05-05 02:52 | 32.94627 | -89.56727 | 8865 ft | 221 kts | 136° |
| 2026-05-05 02:52 | 32.93613 | -89.55349 | 8868 ft | 221 kts | 137° |
| 2026-05-05 02:52 | 32.92606 | -89.53984 | 8835 ft | 218 kts | 137° |
| 2026-05-05 02:53 | 32.91605 | -89.52625 | 8856 ft | 219 kts | 137° |
| 2026-05-05 02:53 | 32.90595 | -89.51263 | 8843 ft | 220 kts | 137° |
| 2026-05-05 02:53 | 32.89580 | -89.49899 | 8850 ft | 220 kts | 137° |
| 2026-05-05 02:53 | 32.88568 | -89.48537 | 8850 ft | 220 kts | 137° |
| 2026-05-05 02:54 | 32.87557 | -89.47177 | 8865 ft | 218 kts | 136° |
| 2026-05-05 02:54 | 32.86558 | -89.45823 | 8859 ft | 217 kts | 136° |
| 2026-05-05 02:54 | 32.85566 | -89.44471 | 8872 ft | 216 kts | 136° |
| 2026-05-05 02:54 | 32.84580 | -89.43121 | 8878 ft | 216 kts | 136° |
| 2026-05-05 02:55 | 32.83593 | -89.41772 | 8875 ft | 216 kts | 136° |
| 2026-05-05 02:55 | 32.82606 | -89.40430 | 8884 ft | 215 kts | 137° |
| 2026-05-05 02:55 | 32.81615 | -89.39095 | 8887 ft | 215 kts | 137° |
| 2026-05-05 02:55 | 32.80623 | -89.37762 | 8880 ft | 215 kts | 137° |
| 2026-05-05 02:56 | 32.79633 | -89.36434 | 8888 ft | 215 kts | 137° |
| 2026-05-05 02:56 | 32.78645 | -89.35108 | 8887 ft | 214 kts | 137° |
| 2026-05-05 02:56 | 32.77659 | -89.33780 | 8899 ft | 214 kts | 137° |
| 2026-05-05 02:56 | 32.76674 | -89.32449 | 8893 ft | 214 kts | 136° |
| 2026-05-05 02:57 | 32.75691 | -89.31121 | 8898 ft | 214 kts | 136° |
| 2026-05-05 02:57 | 32.74710 | -89.29790 | 8899 ft | 215 kts | 136° |
| 2026-05-05 02:57 | 32.73761 | -89.28442 | 8892 ft | 215 kts | 133° |
| 2026-05-05 02:57 | 32.73108 | -89.26865 | 8913 ft | 215 kts | 106° |
| 2026-05-05 02:58 | 32.72906 | -89.25080 | 8922 ft | 221 kts | 100° |
| 2026-05-05 02:58 | 32.72749 | -89.23260 | 8916 ft | 221 kts | 101° |
| 2026-05-05 02:58 | 32.72340 | -89.21503 | 8910 ft | 221 kts | 118° |
| 2026-05-05 02:58 | 32.71532 | -89.19975 | 8930 ft | 218 kts | 133° |
| 2026-05-05 02:59 | 32.70718 | -89.18479 | 8924 ft | 216 kts | 117° |
| 2026-05-05 02:59 | 32.70226 | -89.16791 | 8923 ft | 218 kts | 111° |
| 2026-05-05 02:59 | 32.69775 | -89.15071 | 8925 ft | 219 kts | 111° |
| 2026-05-05 02:59 | 32.69325 | -89.13348 | 8922 ft | 218 kts | 111° |
| 2026-05-05 03:00 | 32.68876 | -89.11623 | 8917 ft | 219 kts | 110° |
| 2026-05-05 03:00 | 32.68412 | -89.09899 | 8911 ft | 219 kts | 111° |
| 2026-05-05 03:00 | 32.67963 | -89.08186 | 8979 ft | 215 kts | 111° |
| 2026-05-05 03:00 | 32.67603 | -89.06475 | 9047 ft | 213 kts | 100° |
| 2026-05-05 03:01 | 32.67334 | -89.04749 | 9071 ft | 215 kts | 111° |
| 2026-05-05 03:01 | 32.67118 | -89.03601 | 9044 ft | 216 kts | 101° |
| 2026-05-05 03:01 | 32.66892 | -89.01826 | 9043 ft | 219 kts | 108° |
| 2026-05-05 03:01 | 32.66426 | -89.00117 | 9051 ft | 217 kts | 112° |
| 2026-05-05 03:02 | 32.65969 | -88.98410 | 9057 ft | 217 kts | 110° |
| 2026-05-05 03:02 | 32.65538 | -88.96689 | 9061 ft | 218 kts | 110° |
| 2026-05-05 03:02 | 32.65099 | -88.94961 | 9060 ft | 219 kts | 111° |
| 2026-05-05 03:02 | 32.64651 | -88.93234 | 9063 ft | 219 kts | 111° |
| 2026-05-05 03:03 | 32.64196 | -88.91512 | 9061 ft | 219 kts | 111° |
| 2026-05-05 03:03 | 32.63734 | -88.89799 | 9066 ft | 216 kts | 112° |
| 2026-05-05 03:03 | 32.63276 | -88.88107 | 9059 ft | 216 kts | 112° |
| 2026-05-05 03:03 | 32.62816 | -88.86413 | 9067 ft | 216 kts | 112° |
| 2026-05-05 03:04 | 32.62351 | -88.84718 | 9063 ft | 213 kts | 112° |
| 2026-05-05 03:04 | 32.61893 | -88.83041 | 9066 ft | 214 kts | 111° |
| 2026-05-05 03:04 | 32.61437 | -88.81349 | 9055 ft | 216 kts | 111° |
| 2026-05-05 03:04 | 32.60982 | -88.79648 | 9068 ft | 217 kts | 111° |
| 2026-05-05 03:05 | 32.60525 | -88.77944 | 9040 ft | 217 kts | 111° |
| 2026-05-05 03:05 | 32.60065 | -88.76243 | 9059 ft | 217 kts | 111° |
| 2026-05-05 03:05 | 32.59602 | -88.74536 | 9067 ft | 218 kts | 111° |
| 2026-05-05 03:05 | 32.59139 | -88.72819 | 9071 ft | 219 kts | 111° |
| 2026-05-05 03:06 | 32.58672 | -88.71100 | 9075 ft | 219 kts | 111° |
| 2026-05-05 03:06 | 32.58203 | -88.69378 | 9081 ft | 220 kts | 111° |
| 2026-05-05 03:06 | 32.57735 | -88.67650 | 9084 ft | 221 kts | 111° |
| 2026-05-05 03:06 | 32.57263 | -88.65915 | 9089 ft | 221 kts | 111° |
| 2026-05-05 03:07 | 32.56792 | -88.64179 | 9086 ft | 221 kts | 111° |
| 2026-05-05 03:07 | 32.56319 | -88.62442 | 9080 ft | 222 kts | 111° |
| 2026-05-05 03:07 | 32.55839 | -88.60698 | 9083 ft | 222 kts | 111° |
| 2026-05-05 03:07 | 32.55362 | -88.58958 | 9089 ft | 222 kts | 111° |
| 2026-05-05 03:08 | 32.54888 | -88.57212 | 9091 ft | 223 kts | 111° |
| 2026-05-05 03:08 | 32.54419 | -88.55482 | 9084 ft | 224 kts | 111° |
| 2026-05-05 03:08 | 32.53946 | -88.53729 | 9092 ft | 224 kts | 111° |
| 2026-05-05 03:08 | 32.53467 | -88.51972 | 9090 ft | 224 kts | 111° |
| 2026-05-05 03:09 | 32.52982 | -88.50211 | 9083 ft | 224 kts | 111° |
| 2026-05-05 03:09 | 32.52499 | -88.48456 | 9083 ft | 224 kts | 111° |
| 2026-05-05 03:09 | 32.52013 | -88.46700 | 9081 ft | 224 kts | 111° |
| 2026-05-05 03:09 | 32.51526 | -88.44946 | 9087 ft | 224 kts | 111° |
| 2026-05-05 03:10 | 32.51050 | -88.43192 | 9090 ft | 224 kts | 111° |
| 2026-05-05 03:10 | 32.50574 | -88.41433 | 9089 ft | 225 kts | 111° |
| 2026-05-05 03:10 | 32.50095 | -88.39670 | 9090 ft | 225 kts | 111° |
| 2026-05-05 03:10 | 32.49614 | -88.37910 | 9092 ft | 224 kts | 111° |
| 2026-05-05 03:11 | 32.49128 | -88.36154 | 9095 ft | 225 kts | 111° |
| 2026-05-05 03:11 | 32.48639 | -88.34395 | 9094 ft | 225 kts | 111° |
| 2026-05-05 03:11 | 32.48155 | -88.32633 | 9096 ft | 225 kts | 111° |
| 2026-05-05 03:11 | 32.47673 | -88.30870 | 9093 ft | 225 kts | 111° |
| 2026-05-05 03:12 | 32.47191 | -88.29106 | 9094 ft | 225 kts | 111° |
| 2026-05-05 03:12 | 32.46706 | -88.27343 | 9094 ft | 225 kts | 111° |
| 2026-05-05 03:12 | 32.46217 | -88.25589 | 9094 ft | 225 kts | 111° |
| 2026-05-05 03:12 | 32.45730 | -88.23829 | 9095 ft | 225 kts | 111° |
| 2026-05-05 03:13 | 32.45244 | -88.22069 | 9095 ft | 225 kts | 111° |
| 2026-05-05 03:13 | 32.44759 | -88.20307 | 9095 ft | 225 kts | 111° |
| 2026-05-05 03:13 | 32.44274 | -88.18544 | 9097 ft | 225 kts | 111° |
| 2026-05-05 03:13 | 32.43786 | -88.16783 | 9098 ft | 225 kts | 111° |
| 2026-05-05 03:14 | 32.43298 | -88.15021 | 9084 ft | 225 kts | 111° |
| 2026-05-05 03:14 | 32.42813 | -88.13263 | 9084 ft | 225 kts | 111° |
| 2026-05-05 03:14 | 32.42326 | -88.11506 | 9084 ft | 225 kts | 111° |
| 2026-05-05 03:14 | 32.41838 | -88.09749 | 9083 ft | 225 kts | 111° |
| 2026-05-05 03:15 | 32.41347 | -88.07994 | 9080 ft | 225 kts | 111° |
| 2026-05-05 03:15 | 32.40853 | -88.06233 | 9084 ft | 225 kts | 111° |
| 2026-05-05 03:15 | 32.40365 | -88.04469 | 9085 ft | 225 kts | 111° |
| 2026-05-05 03:15 | 32.39881 | -88.02707 | 9084 ft | 225 kts | 111° |
| 2026-05-05 03:16 | 32.39393 | -88.00947 | 9076 ft | 225 kts | 111° |
| 2026-05-05 03:16 | 32.38904 | -87.99188 | 9075 ft | 226 kts | 111° |
| 2026-05-05 03:16 | 32.38413 | -87.97426 | 9071 ft | 225 kts | 111° |
| 2026-05-05 03:16 | 32.37922 | -87.95665 | 9070 ft | 226 kts | 111° |
| 2026-05-05 03:17 | 32.37431 | -87.93902 | 9071 ft | 225 kts | 111° |
| 2026-05-05 03:17 | 32.36939 | -87.92141 | 9070 ft | 225 kts | 111° |
| 2026-05-05 03:17 | 32.36448 | -87.90384 | 9071 ft | 225 kts | 111° |
| 2026-05-05 03:17 | 32.35957 | -87.88623 | 9071 ft | 226 kts | 111° |
| 2026-05-05 03:18 | 32.35466 | -87.86858 | 9067 ft | 226 kts | 111° |
| 2026-05-05 03:18 | 32.34974 | -87.85092 | 9056 ft | 226 kts | 111° |
| 2026-05-05 03:18 | 32.34480 | -87.83327 | 9060 ft | 226 kts | 111° |
| 2026-05-05 03:18 | 32.33981 | -87.81562 | 9060 ft | 226 kts | 111° |
| 2026-05-05 03:19 | 32.32997 | -87.78054 | 9058 ft | 226 kts | 111° |
| 2026-05-05 03:19 | 32.32506 | -87.76290 | 9058 ft | 225 kts | 111° |
| 2026-05-05 03:19 | 32.32014 | -87.74531 | 9059 ft | 225 kts | 111° |
| 2026-05-05 03:20 | 32.31521 | -87.72775 | 9061 ft | 225 kts | 111° |
| 2026-05-05 03:20 | 32.31023 | -87.71015 | 9059 ft | 226 kts | 111° |
| 2026-05-05 03:20 | 32.30526 | -87.69256 | 9043 ft | 225 kts | 111° |
| 2026-05-05 03:20 | 32.30029 | -87.67502 | 9046 ft | 225 kts | 111° |
| 2026-05-05 03:21 | 32.29538 | -87.65746 | 9046 ft | 225 kts | 111° |
| 2026-05-05 03:21 | 32.29047 | -87.63990 | 9045 ft | 225 kts | 111° |
| 2026-05-05 03:21 | 32.28552 | -87.62236 | 9048 ft | 225 kts | 111° |
| 2026-05-05 03:21 | 32.28056 | -87.60483 | 9048 ft | 225 kts | 111° |
| 2026-05-05 03:22 | 32.27563 | -87.58730 | 9048 ft | 225 kts | 111° |
| 2026-05-05 03:22 | 32.27069 | -87.56975 | 9049 ft | 225 kts | 111° |
| 2026-05-05 03:22 | 32.26571 | -87.55220 | 9036 ft | 225 kts | 111° |
| 2026-05-05 03:22 | 32.26075 | -87.53463 | 9035 ft | 225 kts | 111° |
| 2026-05-05 03:23 | 32.25579 | -87.51710 | 9035 ft | 225 kts | 111° |
| 2026-05-05 03:23 | 32.25086 | -87.49957 | 9035 ft | 225 kts | 111° |
| 2026-05-05 03:23 | 32.24591 | -87.48204 | 9032 ft | 225 kts | 111° |
| 2026-05-05 03:23 | 32.24095 | -87.46452 | 9033 ft | 226 kts | 111° |
| 2026-05-05 03:24 | 32.23593 | -87.44695 | 9031 ft | 225 kts | 111° |
| 2026-05-05 03:24 | 32.23092 | -87.42941 | 9032 ft | 225 kts | 111° |
| 2026-05-05 03:24 | 32.22596 | -87.41187 | 9035 ft | 225 kts | 111° |
| 2026-05-05 03:24 | 32.22099 | -87.39432 | 9022 ft | 225 kts | 111° |
| 2026-05-05 03:25 | 32.21602 | -87.37676 | 9022 ft | 225 kts | 111° |
| 2026-05-05 03:25 | 32.21103 | -87.35921 | 9021 ft | 225 kts | 111° |
| 2026-05-05 03:25 | 32.20602 | -87.34167 | 9026 ft | 226 kts | 111° |
| 2026-05-05 03:25 | 32.20108 | -87.32433 | 9020 ft | 225 kts | 111° |
| 2026-05-05 03:26 | 32.19606 | -87.30687 | 9023 ft | 224 kts | 111° |
| 2026-05-05 03:26 | 32.19107 | -87.28941 | 9025 ft | 225 kts | 111° |
| 2026-05-05 03:26 | 32.18611 | -87.27192 | 9020 ft | 225 kts | 110° |
| 2026-05-05 03:26 | 32.18117 | -87.25444 | 9021 ft | 225 kts | 110° |
| 2026-05-05 03:27 | 32.17619 | -87.23697 | 9016 ft | 224 kts | 111° |
| 2026-05-05 03:27 | 32.17120 | -87.21949 | 9017 ft | 225 kts | 111° |
| 2026-05-05 03:27 | 32.16618 | -87.20202 | 9013 ft | 225 kts | 111° |
| 2026-05-05 03:27 | 32.16114 | -87.18453 | 9046 ft | 225 kts | 111° |
| 2026-05-05 03:28 | 32.15615 | -87.16706 | 9051 ft | 224 kts | 110° |
| 2026-05-05 03:28 | 32.15120 | -87.14962 | 9050 ft | 224 kts | 110° |
| 2026-05-05 03:28 | 32.14623 | -87.13220 | 9052 ft | 224 kts | 111° |
| 2026-05-05 03:28 | 32.14123 | -87.11479 | 9054 ft | 224 kts | 111° |
| 2026-05-05 03:29 | 32.13619 | -87.09736 | 9048 ft | 225 kts | 111° |
| 2026-05-05 03:29 | 32.13116 | -87.07990 | 9046 ft | 225 kts | 111° |
| 2026-05-05 03:29 | 32.12617 | -87.06244 | 9047 ft | 225 kts | 111° |
| 2026-05-05 03:29 | 32.12118 | -87.04498 | 9045 ft | 225 kts | 111° |
| 2026-05-05 03:30 | 32.11618 | -87.02754 | 9045 ft | 225 kts | 111° |
| 2026-05-05 03:30 | 32.11115 | -87.01010 | 9043 ft | 225 kts | 111° |
| 2026-05-05 03:30 | 32.10609 | -86.99267 | 9043 ft | 225 kts | 111° |
| 2026-05-05 03:30 | 32.10106 | -86.97523 | 9040 ft | 225 kts | 111° |
| 2026-05-05 03:31 | 32.09606 | -86.95777 | 9037 ft | 225 kts | 111° |
| 2026-05-05 03:31 | 32.09103 | -86.94032 | 9029 ft | 225 kts | 111° |
| 2026-05-05 03:31 | 32.08596 | -86.92291 | 9026 ft | 224 kts | 111° |
| 2026-05-05 03:31 | 32.08094 | -86.90554 | 9024 ft | 224 kts | 111° |
| 2026-05-05 03:32 | 32.07595 | -86.88814 | 9020 ft | 224 kts | 111° |
| 2026-05-05 03:32 | 32.07094 | -86.87074 | 9016 ft | 224 kts | 111° |
| 2026-05-05 03:32 | 32.06596 | -86.85358 | 9011 ft | 224 kts | 111° |
| 2026-05-05 03:32 | 32.06084 | -86.83597 | 9017 ft | 224 kts | 111° |
| 2026-05-05 03:33 | 32.05589 | -86.81878 | 9024 ft | 224 kts | 111° |
| 2026-05-05 03:33 | 32.05086 | -86.80137 | 9028 ft | 224 kts | 111° |
| 2026-05-05 03:33 | 32.04582 | -86.78394 | 9031 ft | 225 kts | 111° |
| 2026-05-05 03:33 | 32.04076 | -86.76655 | 9035 ft | 224 kts | 111° |
| 2026-05-05 03:34 | 32.03571 | -86.74916 | 9041 ft | 225 kts | 111° |
| 2026-05-05 03:34 | 32.03064 | -86.73177 | 9034 ft | 224 kts | 111° |
| 2026-05-05 03:34 | 32.02555 | -86.71443 | 9044 ft | 224 kts | 110° |
| 2026-05-05 03:34 | 32.02052 | -86.69703 | 9047 ft | 224 kts | 110° |
| 2026-05-05 03:35 | 32.01549 | -86.67961 | 9053 ft | 225 kts | 110° |
| 2026-05-05 03:35 | 32.01044 | -86.66219 | 9060 ft | 224 kts | 110° |
| 2026-05-05 03:35 | 32.00536 | -86.64483 | 9063 ft | 224 kts | 111° |
| 2026-05-05 03:35 | 32.00030 | -86.62748 | 9073 ft | 224 kts | 110° |
| 2026-05-05 03:36 | 31.99524 | -86.61011 | 9075 ft | 224 kts | 110° |
| 2026-05-05 03:36 | 31.99018 | -86.59274 | 9078 ft | 224 kts | 111° |
| 2026-05-05 03:36 | 31.98513 | -86.57539 | 9080 ft | 224 kts | 111° |
| 2026-05-05 03:36 | 31.98007 | -86.55805 | 9078 ft | 224 kts | 111° |
| 2026-05-05 03:37 | 31.97498 | -86.54072 | 9079 ft | 224 kts | 111° |
| 2026-05-05 03:37 | 31.96989 | -86.52338 | 9077 ft | 224 kts | 110° |
| 2026-05-05 03:37 | 31.96482 | -86.50606 | 9076 ft | 224 kts | 111° |
| 2026-05-05 03:37 | 31.95983 | -86.48896 | 9084 ft | 224 kts | 111° |
| 2026-05-05 03:38 | 31.95477 | -86.47163 | 9081 ft | 224 kts | 111° |
| 2026-05-05 03:38 | 31.94969 | -86.45433 | 9080 ft | 223 kts | 111° |
| 2026-05-05 03:38 | 31.94462 | -86.43704 | 9080 ft | 224 kts | 111° |
| 2026-05-05 03:38 | 31.93953 | -86.41975 | 9075 ft | 224 kts | 111° |
| 2026-05-05 03:39 | 31.93447 | -86.40245 | 9076 ft | 224 kts | 111° |
| 2026-05-05 03:39 | 31.92938 | -86.38512 | 9071 ft | 224 kts | 111° |
| 2026-05-05 03:39 | 31.92427 | -86.36778 | 9069 ft | 224 kts | 111° |
| 2026-05-05 03:39 | 31.91916 | -86.35049 | 9067 ft | 224 kts | 111° |
| 2026-05-05 03:40 | 31.91408 | -86.33320 | 9083 ft | 223 kts | 110° |
| 2026-05-05 03:40 | 31.90904 | -86.31591 | 9078 ft | 224 kts | 111° |
| 2026-05-05 03:40 | 31.90395 | -86.29861 | 9077 ft | 224 kts | 111° |
| 2026-05-05 03:40 | 31.89882 | -86.28134 | 9074 ft | 224 kts | 111° |
| 2026-05-05 03:41 | 31.89370 | -86.26405 | 9075 ft | 224 kts | 111° |
| 2026-05-05 03:41 | 31.88860 | -86.24677 | 9094 ft | 224 kts | 111° |
| 2026-05-05 03:41 | 31.88352 | -86.22946 | 9095 ft | 224 kts | 111° |
| 2026-05-05 03:41 | 31.87842 | -86.21216 | 9101 ft | 224 kts | 111° |
| 2026-05-05 03:42 | 31.87329 | -86.19488 | 9105 ft | 224 kts | 111° |
| 2026-05-05 03:42 | 31.86817 | -86.17762 | 9114 ft | 223 kts | 111° |
| 2026-05-05 03:42 | 31.86317 | -86.16063 | 9111 ft | 223 kts | 111° |
| 2026-05-05 03:42 | 31.85810 | -86.14343 | 9115 ft | 223 kts | 111° |
| 2026-05-05 03:43 | 31.85298 | -86.12623 | 9113 ft | 223 kts | 111° |
| 2026-05-05 03:43 | 31.84785 | -86.10898 | 9116 ft | 223 kts | 111° |
| 2026-05-05 03:43 | 31.84275 | -86.09176 | 9118 ft | 223 kts | 111° |
| 2026-05-05 03:43 | 31.83765 | -86.07453 | 9116 ft | 223 kts | 111° |
| 2026-05-05 03:44 | 31.83254 | -86.05733 | 9115 ft | 223 kts | 111° |
| 2026-05-05 03:44 | 31.82741 | -86.04014 | 9115 ft | 223 kts | 111° |
| 2026-05-05 03:44 | 31.82228 | -86.02293 | 9114 ft | 223 kts | 111° |
| 2026-05-05 03:44 | 31.81717 | -86.00571 | 9115 ft | 223 kts | 111° |
| 2026-05-05 03:45 | 31.81208 | -85.98850 | 9116 ft | 223 kts | 111° |
| 2026-05-05 03:45 | 31.80695 | -85.97128 | 9118 ft | 223 kts | 111° |
| 2026-05-05 03:45 | 31.80179 | -85.95407 | 9115 ft | 223 kts | 111° |
| 2026-05-05 03:45 | 31.79664 | -85.93685 | 9114 ft | 223 kts | 111° |
| 2026-05-05 03:46 | 31.79154 | -85.91963 | 9114 ft | 223 kts | 111° |
| 2026-05-05 03:46 | 31.78642 | -85.90240 | 9114 ft | 223 kts | 111° |
| 2026-05-05 03:46 | 31.78126 | -85.88518 | 9116 ft | 224 kts | 111° |
| 2026-05-05 03:46 | 31.77609 | -85.86793 | 9109 ft | 223 kts | 109° |
| 2026-05-05 03:47 | 31.77245 | -85.85020 | 9106 ft | 224 kts | 110° |
| 2026-05-05 03:47 | 31.76475 | -85.83459 | 9107 ft | 221 kts | 135° |
| 2026-05-05 03:47 | 31.75347 | -85.82243 | 9096 ft | 220 kts | 142° |
| 2026-05-05 03:47 | 31.74199 | -85.81099 | 9102 ft | 219 kts | 142° |
| 2026-05-05 03:48 | 31.73042 | -85.79941 | 9106 ft | 219 kts | 142° |
| 2026-05-05 03:48 | 31.71884 | -85.78780 | 9104 ft | 219 kts | 142° |
| 2026-05-05 03:48 | 31.70729 | -85.77616 | 9104 ft | 219 kts | 142° |
| 2026-05-05 03:48 | 31.69577 | -85.76446 | 9102 ft | 219 kts | 141° |
| 2026-05-05 03:49 | 31.68428 | -85.75271 | 9101 ft | 219 kts | 141° |
| 2026-05-05 03:49 | 31.67282 | -85.74093 | 9094 ft | 219 kts | 141° |
| 2026-05-05 03:49 | 31.66137 | -85.72913 | 9100 ft | 219 kts | 141° |
| 2026-05-05 03:49 | 31.64992 | -85.71734 | 9101 ft | 219 kts | 141° |
| 2026-05-05 03:50 | 31.63850 | -85.70555 | 9096 ft | 219 kts | 141° |
| 2026-05-05 03:50 | 31.62695 | -85.69395 | 9098 ft | 218 kts | 148° |
| 2026-05-05 03:50 | 31.61322 | -85.68670 | 9094 ft | 217 kts | 162° |
| 2026-05-05 03:50 | 31.59886 | -85.68129 | 9082 ft | 215 kts | 164° |
| 2026-05-05 03:51 | 31.58558 | -85.67333 | 9090 ft | 215 kts | 144° |
| 2026-05-05 03:51 | 31.57608 | -85.65987 | 9113 ft | 217 kts | 123° |
| 2026-05-05 03:51 | 31.56763 | -85.64506 | 9099 ft | 219 kts | 133° |
| 2026-05-05 03:51 | 31.55618 | -85.63342 | 9091 ft | 218 kts | 149° |
| 2026-05-05 03:52 | 31.54339 | -85.62393 | 9069 ft | 218 kts | 147° |
| 2026-05-05 03:52 | 31.53179 | -85.61260 | 9087 ft | 217 kts | 139° |
| 2026-05-05 03:52 | 31.52465 | -85.60432 | 9091 ft | 218 kts | 137° |
| 2026-05-05 03:52 | 31.51386 | -85.59179 | 9091 ft | 219 kts | 138° |
| 2026-05-05 03:53 | 31.50275 | -85.57958 | 9090 ft | 219 kts | 140° |
| 2026-05-05 03:53 | 31.49142 | -85.56768 | 9090 ft | 219 kts | 141° |
| 2026-05-05 03:53 | 31.47994 | -85.55596 | 9093 ft | 219 kts | 141° |
| 2026-05-05 03:53 | 31.46841 | -85.54424 | 9090 ft | 219 kts | 141° |
| 2026-05-05 03:54 | 31.45694 | -85.53252 | 9091 ft | 219 kts | 141° |
| 2026-05-05 03:54 | 31.44549 | -85.52079 | 9136 ft | 219 kts | 141° |
| 2026-05-05 03:54 | 31.43406 | -85.50904 | 9140 ft | 219 kts | 141° |
| 2026-05-05 03:54 | 31.42262 | -85.49731 | 9141 ft | 219 kts | 141° |
| 2026-05-05 03:55 | 31.41117 | -85.48560 | 9142 ft | 218 kts | 141° |
| 2026-05-05 03:55 | 31.39974 | -85.47389 | 9144 ft | 218 kts | 141° |
| 2026-05-05 03:55 | 31.38828 | -85.46215 | 9140 ft | 219 kts | 141° |
| 2026-05-05 03:55 | 31.37682 | -85.45044 | 9141 ft | 218 kts | 141° |
| 2026-05-05 03:56 | 31.36540 | -85.43872 | 9143 ft | 218 kts | 141° |
| 2026-05-05 03:56 | 31.35397 | -85.42704 | 9145 ft | 218 kts | 141° |
| 2026-05-05 03:56 | 31.34256 | -85.41536 | 9139 ft | 218 kts | 141° |
| 2026-05-05 03:56 | 31.33117 | -85.40369 | 9142 ft | 218 kts | 141° |
| 2026-05-05 03:57 | 31.31978 | -85.39205 | 9144 ft | 218 kts | 141° |
| 2026-05-05 03:57 | 31.30832 | -85.38044 | 9143 ft | 218 kts | 141° |
| 2026-05-05 03:57 | 31.29690 | -85.36882 | 9144 ft | 218 kts | 141° |
| 2026-05-05 03:57 | 31.28550 | -85.35717 | 9142 ft | 218 kts | 141° |
| 2026-05-05 03:58 | 31.27425 | -85.34567 | 9142 ft | 218 kts | 141° |
| 2026-05-05 03:58 | 31.26285 | -85.33403 | 9141 ft | 218 kts | 141° |
| 2026-05-05 03:58 | 31.25144 | -85.32241 | 9142 ft | 218 kts | 141° |
| 2026-05-05 03:58 | 31.24002 | -85.31080 | 9120 ft | 218 kts | 141° |
| 2026-05-05 03:59 | 31.22860 | -85.29916 | 9119 ft | 218 kts | 141° |
| 2026-05-05 03:59 | 31.21719 | -85.28752 | 9119 ft | 217 kts | 141° |
| 2026-05-05 03:59 | 31.20581 | -85.27594 | 9101 ft | 218 kts | 141° |
| 2026-05-05 03:59 | 31.19436 | -85.26432 | 9116 ft | 218 kts | 141° |
| 2026-05-05 04:00 | 31.18295 | -85.25270 | 9115 ft | 217 kts | 141° |
| 2026-05-05 04:00 | 31.17154 | -85.24110 | 9117 ft | 218 kts | 141° |
| 2026-05-05 04:00 | 31.16012 | -85.22948 | 9117 ft | 218 kts | 141° |
| 2026-05-05 04:00 | 31.14868 | -85.21789 | 9116 ft | 218 kts | 141° |
| 2026-05-05 04:01 | 31.13720 | -85.20629 | 9117 ft | 218 kts | 141° |
| 2026-05-05 04:01 | 31.12577 | -85.19464 | 9117 ft | 218 kts | 141° |
| 2026-05-05 04:01 | 31.11431 | -85.18297 | 9114 ft | 218 kts | 141° |
| 2026-05-05 04:01 | 31.10286 | -85.17133 | 9116 ft | 218 kts | 141° |
| 2026-05-05 04:02 | 31.09140 | -85.15970 | 9109 ft | 218 kts | 141° |
| 2026-05-05 04:02 | 31.07993 | -85.14808 | 9108 ft | 218 kts | 141° |
| 2026-05-05 04:02 | 31.06846 | -85.13647 | 9108 ft | 218 kts | 141° |
| 2026-05-05 04:02 | 31.05702 | -85.12485 | 9109 ft | 218 kts | 141° |
| 2026-05-05 04:03 | 31.04555 | -85.11323 | 9107 ft | 218 kts | 141° |
| 2026-05-05 04:03 | 31.03411 | -85.10163 | 9109 ft | 218 kts | 141° |
| 2026-05-05 04:03 | 31.02265 | -85.09004 | 9112 ft | 218 kts | 141° |
| 2026-05-05 04:03 | 31.01119 | -85.07848 | 9106 ft | 218 kts | 141° |
| 2026-05-05 04:04 | 30.99973 | -85.06688 | 9107 ft | 218 kts | 141° |
| 2026-05-05 04:04 | 30.98843 | -85.05544 | 9108 ft | 218 kts | 141° |
| 2026-05-05 04:04 | 30.97697 | -85.04385 | 9098 ft | 218 kts | 141° |
| 2026-05-05 04:04 | 30.96554 | -85.03227 | 9103 ft | 218 kts | 141° |
| 2026-05-05 04:05 | 30.95412 | -85.02070 | 9103 ft | 218 kts | 141° |
| 2026-05-05 04:05 | 30.94266 | -85.00915 | 9102 ft | 218 kts | 141° |
| 2026-05-05 04:05 | 30.93122 | -84.99761 | 9099 ft | 218 kts | 141° |
| 2026-05-05 04:05 | 30.91978 | -84.98607 | 9100 ft | 217 kts | 141° |
| 2026-05-05 04:06 | 30.90835 | -84.97453 | 9100 ft | 218 kts | 141° |
| 2026-05-05 04:06 | 30.89690 | -84.96297 | 9098 ft | 218 kts | 141° |
| 2026-05-05 04:06 | 30.88543 | -84.95142 | 9097 ft | 218 kts | 141° |
| 2026-05-05 04:06 | 30.87398 | -84.93989 | 9100 ft | 218 kts | 141° |
| 2026-05-05 04:07 | 30.86255 | -84.92836 | 9103 ft | 218 kts | 141° |
| 2026-05-05 04:07 | 30.85105 | -84.91679 | 9096 ft | 219 kts | 141° |
| 2026-05-05 04:07 | 30.83954 | -84.90522 | 9098 ft | 219 kts | 141° |
| 2026-05-05 04:07 | 30.82804 | -84.89361 | 9100 ft | 219 kts | 141° |
| 2026-05-05 04:08 | 30.81651 | -84.88202 | 9100 ft | 219 kts | 141° |
| 2026-05-05 04:08 | 30.80502 | -84.87043 | 9099 ft | 219 kts | 141° |
| 2026-05-05 04:08 | 30.79350 | -84.85884 | 9099 ft | 219 kts | 141° |
| 2026-05-05 04:08 | 30.78201 | -84.84727 | 9099 ft | 218 kts | 141° |
| 2026-05-05 04:09 | 30.77051 | -84.83571 | 9099 ft | 218 kts | 141° |
| 2026-05-05 04:09 | 30.75901 | -84.82419 | 9100 ft | 218 kts | 141° |
| 2026-05-05 04:09 | 30.74752 | -84.81269 | 9098 ft | 218 kts | 141° |
| 2026-05-05 04:09 | 30.73599 | -84.80115 | 9100 ft | 219 kts | 141° |
| 2026-05-05 04:10 | 30.72449 | -84.78960 | 9101 ft | 219 kts | 141° |
| 2026-05-05 04:10 | 30.71299 | -84.77804 | 9100 ft | 218 kts | 141° |
| 2026-05-05 04:10 | 30.70146 | -84.76651 | 9104 ft | 219 kts | 141° |
| 2026-05-05 04:10 | 30.68995 | -84.75498 | 9101 ft | 219 kts | 141° |
| 2026-05-05 04:11 | 30.67842 | -84.74343 | 9099 ft | 219 kts | 141° |
| 2026-05-05 04:11 | 30.66688 | -84.73187 | 9099 ft | 219 kts | 141° |
| 2026-05-05 04:11 | 30.65534 | -84.72033 | 9101 ft | 219 kts | 141° |
| 2026-05-05 04:11 | 30.64379 | -84.70880 | 9100 ft | 219 kts | 141° |
| 2026-05-05 04:12 | 30.63223 | -84.69726 | 9101 ft | 219 kts | 141° |
| 2026-05-05 04:12 | 30.62068 | -84.68572 | 9101 ft | 219 kts | 141° |
| 2026-05-05 04:12 | 30.60911 | -84.67415 | 9100 ft | 219 kts | 141° |
| 2026-05-05 04:12 | 30.59760 | -84.66260 | 9098 ft | 219 kts | 141° |
| 2026-05-05 04:13 | 30.58610 | -84.65106 | 9100 ft | 219 kts | 141° |
| 2026-05-05 04:13 | 30.57458 | -84.63959 | 9102 ft | 218 kts | 142° |
| 2026-05-05 04:13 | 30.56304 | -84.62814 | 9098 ft | 218 kts | 142° |
| 2026-05-05 04:13 | 30.55154 | -84.61667 | 9101 ft | 218 kts | 142° |
| 2026-05-05 04:14 | 30.54000 | -84.60520 | 9100 ft | 218 kts | 141° |
| 2026-05-05 04:14 | 30.52849 | -84.59373 | 9101 ft | 218 kts | 141° |
| 2026-05-05 04:14 | 30.51698 | -84.58224 | 9101 ft | 218 kts | 141° |
| 2026-05-05 04:14 | 30.50549 | -84.57073 | 9100 ft | 218 kts | 141° |
| 2026-05-05 04:15 | 30.49398 | -84.55929 | 9100 ft | 218 kts | 142° |
| 2026-05-05 04:15 | 30.48245 | -84.54782 | 9101 ft | 219 kts | 141° |
| 2026-05-05 04:15 | 30.47095 | -84.53633 | 9100 ft | 218 kts | 142° |
| 2026-05-05 04:15 | 30.45940 | -84.52489 | 9101 ft | 219 kts | 142° |
| 2026-05-05 04:16 | 30.44785 | -84.51341 | 9100 ft | 219 kts | 142° |
| 2026-05-05 04:16 | 30.43632 | -84.50193 | 9097 ft | 218 kts | 142° |
| 2026-05-05 04:16 | 30.42478 | -84.49049 | 9101 ft | 218 kts | 142° |
| 2026-05-05 04:16 | 30.41327 | -84.47904 | 9101 ft | 218 kts | 142° |
| 2026-05-05 04:17 | 30.40175 | -84.46757 | 9101 ft | 219 kts | 142° |
| 2026-05-05 04:17 | 30.39020 | -84.45612 | 9102 ft | 219 kts | 142° |
| 2026-05-05 04:17 | 30.37867 | -84.44464 | 9100 ft | 219 kts | 142° |
| 2026-05-05 04:17 | 30.36712 | -84.43317 | 9098 ft | 219 kts | 142° |
| 2026-05-05 04:18 | 30.35554 | -84.42175 | 9101 ft | 219 kts | 142° |
| 2026-05-05 04:18 | 30.34400 | -84.41030 | 9101 ft | 218 kts | 142° |
| 2026-05-05 04:18 | 30.33246 | -84.39885 | 9101 ft | 218 kts | 141° |
| 2026-05-05 04:18 | 30.32093 | -84.38739 | 9101 ft | 219 kts | 141° |
| 2026-05-05 04:19 | 30.30940 | -84.37594 | 9099 ft | 218 kts | 141° |
| 2026-05-05 04:19 | 30.29787 | -84.36448 | 9103 ft | 218 kts | 141° |
| 2026-05-05 04:19 | 30.28636 | -84.35304 | 9103 ft | 218 kts | 142° |
| 2026-05-05 04:19 | 30.27485 | -84.34161 | 9101 ft | 219 kts | 142° |
| 2026-05-05 04:20 | 30.26329 | -84.33002 | 9106 ft | 221 kts | 142° |
| 2026-05-05 04:20 | 30.25164 | -84.31836 | 9106 ft | 222 kts | 142° |
| 2026-05-05 04:20 | 30.23987 | -84.30691 | 9105 ft | 221 kts | 143° |
| 2026-05-05 04:20 | 30.22813 | -84.29540 | 9105 ft | 222 kts | 142° |
| 2026-05-05 04:21 | 30.21649 | -84.28376 | 9105 ft | 220 kts | 142° |
| 2026-05-05 04:21 | 30.20485 | -84.27238 | 9105 ft | 219 kts | 142° |
| 2026-05-05 04:21 | 30.19325 | -84.26089 | 9107 ft | 220 kts | 142° |
| 2026-05-05 04:21 | 30.18166 | -84.24940 | 9105 ft | 219 kts | 142° |
| 2026-05-05 04:22 | 30.17004 | -84.23800 | 9106 ft | 219 kts | 142° |
| 2026-05-05 04:22 | 30.15851 | -84.22646 | 9106 ft | 220 kts | 142° |
| 2026-05-05 04:22 | 30.14717 | -84.21499 | 9112 ft | 219 kts | 142° |
| 2026-05-05 04:22 | 30.13554 | -84.20357 | 9111 ft | 219 kts | 143° |
| 2026-05-05 04:23 | 30.12384 | -84.19224 | 9112 ft | 220 kts | 142° |
| 2026-05-05 04:23 | 30.11223 | -84.18070 | 9109 ft | 220 kts | 142° |
| 2026-05-05 04:23 | 30.10067 | -84.16918 | 9111 ft | 219 kts | 142° |
| 2026-05-05 04:23 | 30.08906 | -84.15773 | 9111 ft | 220 kts | 143° |
| 2026-05-05 04:24 | 30.07740 | -84.14627 | 9113 ft | 220 kts | 143° |
| 2026-05-05 04:24 | 30.06571 | -84.13479 | 9111 ft | 220 kts | 143° |
| 2026-05-05 04:24 | 30.05408 | -84.12337 | 9111 ft | 220 kts | 143° |
| 2026-05-05 04:25 | 30.03080 | -84.10043 | 9113 ft | 220 kts | 142° |
| 2026-05-05 04:25 | 30.01917 | -84.08895 | 9114 ft | 220 kts | 142° |
| 2026-05-05 04:25 | 30.00755 | -84.07750 | 9114 ft | 220 kts | 142° |
| 2026-05-05 04:25 | 29.99604 | -84.06628 | 9113 ft | 219 kts | 142° |
| 2026-05-05 04:26 | 29.98440 | -84.05488 | 9114 ft | 219 kts | 142° |
| 2026-05-05 04:26 | 29.97290 | -84.04329 | 9112 ft | 220 kts | 142° |
| 2026-05-05 04:26 | 29.96134 | -84.03174 | 9114 ft | 220 kts | 143° |
| 2026-05-05 04:26 | 29.94960 | -84.02050 | 9113 ft | 218 kts | 143° |
| 2026-05-05 04:27 | 29.93796 | -84.00926 | 9114 ft | 219 kts | 142° |
| 2026-05-05 04:27 | 29.92645 | -83.99775 | 9114 ft | 219 kts | 142° |
| 2026-05-05 04:27 | 29.91489 | -83.98635 | 9110 ft | 219 kts | 142° |
| 2026-05-05 04:27 | 29.90333 | -83.97488 | 9113 ft | 219 kts | 142° |
| 2026-05-05 04:28 | 29.89174 | -83.96339 | 9115 ft | 220 kts | 143° |
| 2026-05-05 04:28 | 29.88007 | -83.95210 | 9114 ft | 219 kts | 143° |
| 2026-05-05 04:28 | 29.86838 | -83.94082 | 9113 ft | 219 kts | 143° |
| 2026-05-05 04:28 | 29.85694 | -83.92952 | 9114 ft | 220 kts | 143° |
| 2026-05-05 04:29 | 29.84531 | -83.91812 | 9114 ft | 218 kts | 143° |
| 2026-05-05 04:29 | 29.83368 | -83.90690 | 9112 ft | 218 kts | 142° |
| 2026-05-05 04:29 | 29.82213 | -83.89553 | 9115 ft | 218 kts | 141° |
| 2026-05-05 04:29 | 29.81030 | -83.88461 | 9116 ft | 218 kts | 149° |
| 2026-05-05 04:30 | 29.79705 | -83.87614 | 9114 ft | 217 kts | 157° |
| 2026-05-05 04:30 | 29.78342 | -83.86885 | 9114 ft | 216 kts | 158° |
| 2026-05-05 04:30 | 29.76992 | -83.86119 | 9111 ft | 216 kts | 156° |
| 2026-05-05 04:30 | 29.75666 | -83.85306 | 9114 ft | 216 kts | 154° |
| 2026-05-05 04:31 | 29.74349 | -83.84471 | 9113 ft | 216 kts | 154° |
| 2026-05-05 04:31 | 29.73042 | -83.83616 | 9115 ft | 216 kts | 153° |
| 2026-05-05 04:31 | 29.71731 | -83.82761 | 9112 ft | 217 kts | 153° |
| 2026-05-05 04:31 | 29.70440 | -83.81923 | 9114 ft | 217 kts | 154° |
| 2026-05-05 04:32 | 29.69124 | -83.81076 | 9111 ft | 217 kts | 154° |
| 2026-05-05 04:32 | 29.67807 | -83.80238 | 9109 ft | 216 kts | 154° |
| 2026-05-05 04:32 | 29.66495 | -83.79400 | 9110 ft | 216 kts | 154° |
| 2026-05-05 04:32 | 29.65192 | -83.78551 | 9118 ft | 215 kts | 154° |
| 2026-05-05 04:33 | 29.63887 | -83.77709 | 9117 ft | 215 kts | 154° |
| 2026-05-05 04:33 | 29.62575 | -83.76876 | 9116 ft | 215 kts | 154° |
| 2026-05-05 04:33 | 29.61264 | -83.76040 | 9113 ft | 216 kts | 153° |
| 2026-05-05 04:33 | 29.59956 | -83.75191 | 9108 ft | 216 kts | 153° |
| 2026-05-05 04:34 | 29.58651 | -83.74335 | 9109 ft | 216 kts | 153° |
| 2026-05-05 04:34 | 29.57344 | -83.73485 | 9109 ft | 216 kts | 154° |
| 2026-05-05 04:34 | 29.56029 | -83.72654 | 9109 ft | 216 kts | 154° |
| 2026-05-05 04:34 | 29.54719 | -83.71819 | 9109 ft | 215 kts | 154° |
| 2026-05-05 04:35 | 29.53412 | -83.70971 | 9107 ft | 216 kts | 154° |
| 2026-05-05 04:35 | 29.52103 | -83.70134 | 9109 ft | 215 kts | 154° |
| 2026-05-05 04:35 | 29.50791 | -83.69302 | 9110 ft | 215 kts | 154° |
| 2026-05-05 04:35 | 29.49481 | -83.68461 | 9109 ft | 216 kts | 154° |
| 2026-05-05 04:36 | 29.48169 | -83.67625 | 9109 ft | 216 kts | 153° |
| 2026-05-05 04:36 | 29.46863 | -83.66775 | 9111 ft | 216 kts | 153° |
| 2026-05-05 04:36 | 29.45551 | -83.65932 | 9107 ft | 216 kts | 154° |
| 2026-05-05 04:36 | 29.44240 | -83.65098 | 9111 ft | 216 kts | 154° |
| 2026-05-05 04:37 | 29.42927 | -83.64262 | 9106 ft | 216 kts | 153° |
| 2026-05-05 04:37 | 29.42058 | -83.63709 | 9108 ft | 216 kts | 153° |
| 2026-05-05 04:37 | 29.40313 | -83.62575 | 9110 ft | 215 kts | 153° |
| 2026-05-05 04:37 | 29.39024 | -83.61737 | 9109 ft | 216 kts | 154° |
| 2026-05-05 04:38 | 29.37708 | -83.60912 | 9105 ft | 215 kts | 154° |
| 2026-05-05 04:38 | 29.36393 | -83.60088 | 9106 ft | 216 kts | 153° |
| 2026-05-05 04:38 | 29.35084 | -83.59245 | 9112 ft | 215 kts | 153° |
| 2026-05-05 04:38 | 29.33779 | -83.58398 | 9111 ft | 216 kts | 153° |
| 2026-05-05 04:39 | 29.32897 | -83.57830 | 9110 ft | 216 kts | 153° |
| 2026-05-05 04:39 | 29.31157 | -83.56728 | 9114 ft | 216 kts | 153° |
| 2026-05-05 04:39 | 29.30271 | -83.56164 | 9113 ft | 216 kts | 153° |
| 2026-05-05 04:39 | 29.28961 | -83.55328 | 9114 ft | 215 kts | 153° |
| 2026-05-05 04:40 | 29.27654 | -83.54487 | 9114 ft | 215 kts | 153° |
| 2026-05-05 04:40 | 29.26343 | -83.53654 | 9116 ft | 216 kts | 153° |
| 2026-05-05 04:40 | 29.25035 | -83.52818 | 9113 ft | 215 kts | 153° |
| 2026-05-05 04:40 | 29.23732 | -83.51973 | 9115 ft | 215 kts | 154° |
| 2026-05-05 04:41 | 29.22421 | -83.51143 | 9114 ft | 215 kts | 154° |
| 2026-05-05 04:41 | 29.21112 | -83.50310 | 9113 ft | 215 kts | 154° |
| 2026-05-05 04:41 | 29.19804 | -83.49478 | 9114 ft | 215 kts | 154° |
| 2026-05-05 04:41 | 29.18507 | -83.48667 | 9115 ft | 215 kts | 154° |
| 2026-05-05 04:42 | 29.17200 | -83.47827 | 9113 ft | 215 kts | 154° |
| 2026-05-05 04:42 | 29.15893 | -83.46991 | 9112 ft | 215 kts | 154° |
| 2026-05-05 04:42 | 29.14587 | -83.46153 | 9117 ft | 215 kts | 154° |
| 2026-05-05 04:42 | 29.13277 | -83.45323 | 9112 ft | 215 kts | 154° |
| 2026-05-05 04:43 | 29.11961 | -83.44504 | 9111 ft | 215 kts | 154° |
| 2026-05-05 04:43 | 29.10652 | -83.43681 | 9114 ft | 215 kts | 154° |
| 2026-05-05 04:43 | 29.09347 | -83.42837 | 9112 ft | 215 kts | 153° |
| 2026-05-05 04:43 | 29.08042 | -83.42000 | 9106 ft | 214 kts | 154° |
| 2026-05-05 04:44 | 29.06738 | -83.41185 | 9113 ft | 214 kts | 154° |
| 2026-05-05 04:44 | 29.05432 | -83.40364 | 9103 ft | 214 kts | 153° |
| 2026-05-05 04:44 | 29.04131 | -83.39534 | 9114 ft | 214 kts | 153° |
| 2026-05-05 04:44 | 29.02833 | -83.38695 | 9114 ft | 214 kts | 154° |
| 2026-05-05 04:45 | 29.01536 | -83.37865 | 9110 ft | 214 kts | 154° |
| 2026-05-05 04:45 | 29.00233 | -83.37050 | 9111 ft | 214 kts | 154° |
| 2026-05-05 04:45 | 28.98929 | -83.36235 | 9110 ft | 213 kts | 154° |
| 2026-05-05 04:45 | 28.97637 | -83.35402 | 9112 ft | 214 kts | 154° |
| 2026-05-05 04:46 | 28.96342 | -83.34574 | 9110 ft | 213 kts | 154° |
| 2026-05-05 04:46 | 28.95040 | -83.33757 | 9107 ft | 214 kts | 154° |
| 2026-05-05 04:46 | 28.93739 | -83.32936 | 9111 ft | 213 kts | 154° |
| 2026-05-05 04:46 | 28.92437 | -83.32122 | 9103 ft | 213 kts | 154° |
| 2026-05-05 04:47 | 28.91140 | -83.31297 | 9109 ft | 213 kts | 154° |
| 2026-05-05 04:47 | 28.89848 | -83.30464 | 9111 ft | 214 kts | 154° |
| 2026-05-05 04:47 | 28.88538 | -83.29641 | 9018 ft | 218 kts | 154° |
| 2026-05-05 04:47 | 28.87202 | -83.28807 | 8960 ft | 218 kts | 154° |
| 2026-05-05 04:48 | 28.85881 | -83.27974 | 8994 ft | 216 kts | 153° |
| 2026-05-05 04:48 | 28.84571 | -83.27138 | 8988 ft | 216 kts | 153° |
| 2026-05-05 04:48 | 28.83268 | -83.26291 | 8983 ft | 215 kts | 154° |
| 2026-05-05 04:48 | 28.81961 | -83.25463 | 8987 ft | 214 kts | 154° |
| 2026-05-05 04:49 | 28.80649 | -83.24651 | 8988 ft | 215 kts | 154° |
| 2026-05-05 04:49 | 28.79339 | -83.23831 | 8986 ft | 215 kts | 154° |
| 2026-05-05 04:49 | 28.78042 | -83.22998 | 8978 ft | 214 kts | 154° |
| 2026-05-05 04:49 | 28.76740 | -83.22169 | 8977 ft | 214 kts | 154° |
| 2026-05-05 04:50 | 28.75436 | -83.21353 | 8982 ft | 214 kts | 154° |
| 2026-05-05 04:50 | 28.74131 | -83.20537 | 8987 ft | 214 kts | 154° |
| 2026-05-05 04:50 | 28.72823 | -83.19723 | 8988 ft | 214 kts | 154° |
| 2026-05-05 04:50 | 28.71526 | -83.18897 | 8989 ft | 213 kts | 154° |
| 2026-05-05 04:51 | 28.70230 | -83.18070 | 8989 ft | 214 kts | 154° |
| 2026-05-05 04:51 | 28.68925 | -83.17258 | 8989 ft | 214 kts | 154° |
| 2026-05-05 04:51 | 28.67622 | -83.16442 | 8991 ft | 213 kts | 154° |
| 2026-05-05 04:51 | 28.66328 | -83.15612 | 8984 ft | 214 kts | 154° |
| 2026-05-05 04:52 | 28.65017 | -83.14792 | 8984 ft | 215 kts | 154° |
| 2026-05-05 04:52 | 28.63714 | -83.13955 | 8983 ft | 215 kts | 154° |
| 2026-05-05 04:52 | 28.62405 | -83.13132 | 8987 ft | 215 kts | 155° |
| 2026-05-05 04:52 | 28.61084 | -83.12326 | 8984 ft | 215 kts | 154° |
| 2026-05-05 04:53 | 28.59778 | -83.11495 | 8984 ft | 215 kts | 154° |
| 2026-05-05 04:53 | 28.58472 | -83.10664 | 8983 ft | 215 kts | 154° |
| 2026-05-05 04:53 | 28.57167 | -83.09834 | 8984 ft | 215 kts | 155° |
| 2026-05-05 04:53 | 28.55853 | -83.09012 | 8982 ft | 215 kts | 155° |
| 2026-05-05 04:54 | 28.54533 | -83.08213 | 8985 ft | 215 kts | 155° |
| 2026-05-05 04:54 | 28.53218 | -83.07396 | 8981 ft | 215 kts | 154° |
| 2026-05-05 04:54 | 28.51920 | -83.06549 | 8983 ft | 215 kts | 154° |
| 2026-05-05 04:54 | 28.50619 | -83.05719 | 8983 ft | 214 kts | 154° |
| 2026-05-05 04:55 | 28.49318 | -83.04929 | 8983 ft | 215 kts | 155° |
| 2026-05-05 04:55 | 28.48002 | -83.04121 | 8981 ft | 215 kts | 154° |
| 2026-05-05 04:55 | 28.46698 | -83.03286 | 8980 ft | 215 kts | 153° |
| 2026-05-05 04:55 | 28.45393 | -83.02444 | 8984 ft | 215 kts | 154° |
| 2026-05-05 04:56 | 28.44084 | -83.01622 | 8984 ft | 215 kts | 155° |
| 2026-05-05 04:56 | 28.42768 | -83.00808 | 8984 ft | 215 kts | 155° |
| 2026-05-05 04:56 | 28.41450 | -82.99996 | 8981 ft | 216 kts | 154° |
| 2026-05-05 04:56 | 28.40139 | -82.99166 | 8981 ft | 216 kts | 154° |
| 2026-05-05 04:57 | 28.38824 | -82.98343 | 8982 ft | 216 kts | 154° |
| 2026-05-05 04:57 | 28.37507 | -82.97521 | 8981 ft | 216 kts | 154° |
| 2026-05-05 04:57 | 28.36193 | -82.96697 | 8981 ft | 213 kts | 154° |
| 2026-05-05 04:57 | 28.34951 | -82.95924 | 8959 ft | 195 kts | 155° |
| 2026-05-05 04:58 | 28.33758 | -82.95184 | 8549 ft | 197 kts | 154° |
| 2026-05-05 04:58 | 28.32607 | -82.94454 | 8183 ft | 183 kts | 154° |
| 2026-05-05 04:58 | 28.31504 | -82.93762 | 7742 ft | 180 kts | 155° |
| 2026-05-05 04:58 | 28.30400 | -82.93096 | 7317 ft | 179 kts | 154° |
| 2026-05-05 04:59 | 28.29316 | -82.92428 | 6904 ft | 177 kts | 153° |
| 2026-05-05 04:59 | 28.28213 | -82.91752 | 6534 ft | 182 kts | 152° |
| 2026-05-05 04:59 | 28.27104 | -82.91071 | 6210 ft | 175 kts | 152° |
| 2026-05-05 04:59 | 28.26120 | -82.90327 | 5795 ft | 168 kts | 140° |
| 2026-05-05 05:00 | 28.25322 | -82.89385 | 5381 ft | 164 kts | 130° |
| 2026-05-05 05:00 | 28.24607 | -82.88378 | 4948 ft | 164 kts | 129° |
| 2026-05-05 05:00 | 28.23863 | -82.87417 | 4586 ft | 158 kts | 131° |
| 2026-05-05 05:00 | 28.23130 | -82.86549 | 4371 ft | 150 kts | 132° |
| 2026-05-05 05:01 | 28.22376 | -82.85692 | 4259 ft | 156 kts | 133° |
| 2026-05-05 05:01 | 28.21597 | -82.84823 | 4170 ft | 157 kts | 133° |
| 2026-05-05 05:01 | 28.20815 | -82.83959 | 4091 ft | 157 kts | 133° |
| 2026-05-05 05:01 | 28.20025 | -82.83083 | 4018 ft | 160 kts | 134° |
| 2026-05-05 05:02 | 28.19224 | -82.82199 | 3952 ft | 161 kts | 134° |
| 2026-05-05 05:02 | 28.18413 | -82.81311 | 3891 ft | 163 kts | 134° |
| 2026-05-05 05:02 | 28.17592 | -82.80416 | 3808 ft | 164 kts | 134° |
| 2026-05-05 05:02 | 28.16768 | -82.79517 | 3737 ft | 165 kts | 133° |
| 2026-05-05 05:03 | 28.15948 | -82.78608 | 3666 ft | 165 kts | 133° |
| 2026-05-05 05:03 | 28.15118 | -82.77693 | 3590 ft | 172 kts | 133° |
| 2026-05-05 05:03 | 28.14231 | -82.76696 | 3542 ft | 186 kts | 133° |
| 2026-05-05 05:03 | 28.13269 | -82.75632 | 3471 ft | 199 kts | 134° |
| 2026-05-05 05:04 | 28.12271 | -82.74531 | 3494 ft | 201 kts | 134° |
| 2026-05-05 05:04 | 28.11265 | -82.73426 | 3497 ft | 203 kts | 134° |
| 2026-05-05 05:04 | 28.10246 | -82.72309 | 3489 ft | 204 kts | 134° |
| 2026-05-05 05:04 | 28.09229 | -82.71193 | 3502 ft | 204 kts | 134° |
| 2026-05-05 05:05 | 28.08210 | -82.70062 | 3495 ft | 206 kts | 134° |
| 2026-05-05 05:05 | 28.07183 | -82.68928 | 3490 ft | 204 kts | 134° |
| 2026-05-05 05:05 | 28.06192 | -82.67812 | 3486 ft | 204 kts | 133° |
| 2026-05-05 05:05 | 28.05197 | -82.66649 | 3491 ft | 206 kts | 132° |
| 2026-05-05 05:06 | 28.04199 | -82.65468 | 3487 ft | 208 kts | 133° |
| 2026-05-05 05:06 | 28.03194 | -82.64306 | 3497 ft | 205 kts | 133° |
| 2026-05-05 05:06 | 28.02186 | -82.63166 | 3494 ft | 204 kts | 134° |
| 2026-05-05 05:06 | 28.01253 | -82.61967 | 3494 ft | 203 kts | 118° |
| 2026-05-05 05:07 | 28.00541 | -82.60583 | 3490 ft | 206 kts | 128° |
| 2026-05-05 05:07 | 27.99400 | -82.59622 | 3487 ft | 207 kts | 157° |
| 2026-05-05 05:07 | 27.97989 | -82.59402 | 3507 ft | 206 kts | 177° |
| 2026-05-05 05:07 | 27.96541 | -82.59461 | 3492 ft | 209 kts | 179° |
| 2026-05-05 05:08 | 27.95078 | -82.59534 | 3491 ft | 211 kts | 179° |
| 2026-05-05 05:08 | 27.93604 | -82.59603 | 3484 ft | 213 kts | 179° |
| 2026-05-05 05:08 | 27.92162 | -82.59658 | 3494 ft | 197 kts | 180° |
| 2026-05-05 05:08 | 27.90836 | -82.59726 | 3408 ft | 188 kts | 180° |
| 2026-05-05 05:09 | 27.89532 | -82.59795 | 3183 ft | 186 kts | 179° |
| 2026-05-05 05:09 | 27.88249 | -82.59888 | 2972 ft | 185 kts | 179° |
| 2026-05-05 05:09 | 27.86965 | -82.59967 | 2768 ft | 183 kts | 176° |
| 2026-05-05 05:09 | 27.85711 | -82.59817 | 2570 ft | 180 kts | 154° |
| 2026-05-05 05:10 | 27.84750 | -82.59004 | 2454 ft | 170 kts | 121° |
| 2026-05-05 05:10 | 27.84316 | -82.57832 | 2458 ft | 157 kts | 96° |
| 2026-05-05 05:10 | 27.84515 | -82.56691 | 2474 ft | 146 kts | 60° |
| 2026-05-05 05:10 | 27.85295 | -82.56002 | 2473 ft | 145 kts | 23° |
| 2026-05-05 05:11 | 27.86298 | -82.55699 | 2293 ft | 152 kts | 21° |
| 2026-05-05 05:11 | 27.87336 | -82.55415 | 2042 ft | 154 kts | 21° |
| 2026-05-05 05:11 | 27.88360 | -82.55102 | 1789 ft | 152 kts | 22° |
| 2026-05-05 05:11 | 27.89367 | -82.54828 | 1600 ft | 146 kts | 19° |
| 2026-05-05 05:12 | 27.90299 | -82.54626 | 1309 ft | 128 kts | 15° |
| 2026-05-05 05:12 | 27.91168 | -82.54518 | 1135 ft | 126 kts | 12° |
| 2026-05-05 05:12 | 27.92077 | -82.54443 | 949 ft | 132 kts | 11° |
| 2026-05-05 05:12 | 27.92985 | -82.54363 | 759 ft | 126 kts | 9° |
| 2026-05-05 05:13 | 27.93842 | -82.54333 | 562 ft | 121 kts | 9° |
| 2026-05-05 05:13 | 27.94690 | -82.54300 | 395 ft | 127 kts | 6° |
| 2026-05-05 05:13 | 27.95512 | -82.54267 | 213 ft | 108 kts | 10° |
| 2026-05-05 05:13 | 27.96220 | -82.54240 | 61 ft | 96 kts | 6° |
| 2026-05-05 05:14 | 27.96783 | -82.54217 | 32 ft | 66 kts | 359° |
| 2026-05-05 05:14 | 27.97102 | -82.54208 | 34 ft | 36 kts | 2° |
| 2026-05-05 05:14 | 27.97341 | -82.54197 | 32 ft | 33 kts | 1° |
| 2026-05-05 05:14 | 27.97422 | -82.54177 | 32 ft | 10 kts | 78° |
| 2026-05-05 05:15 | 27.97420 | -82.54148 | 32 ft | 5 kts | 96° |
| 2026-05-05 05:15 | 27.97425 | -82.54094 | 31 ft | 9 kts | 54° |
| 2026-05-05 05:15 | 27.97499 | -82.54072 | 29 ft | 14 kts | 2° |
| 2026-05-05 05:15 | 27.97615 | -82.54064 | 28 ft | 19 kts | 4° |
| 2026-05-05 05:16 | 27.97665 | -82.54063 | 27 ft | 5 kts | 357° |
| 2026-05-05 05:16 | 27.97719 | -82.54066 | 27 ft | 10 kts | 342° |
| 2026-05-05 05:16 | 27.97662 | -82.54070 | 27 ft | 13 kts | 169° |
| 2026-05-05 05:16 | 27.97564 | -82.54070 | 28 ft | 8 kts | 179° |
| 2026-05-05 05:17 | 27.97524 | -82.54046 | 29 ft | 8 kts | 119° |
| 2026-05-05 05:17 | 27.97517 | -82.53972 | 29 ft | 11 kts | 92° |
| 2026-05-05 05:17 | 27.97489 | -82.53885 | 29 ft | 13 kts | 122° |
| 2026-05-05 05:17 | 27.97438 | -82.53799 | 29 ft | 14 kts | 124° |
| 2026-05-05 05:18 | 27.97378 | -82.53694 | 20 ft | 18 kts | 123° |
| 2026-05-05 05:18 | 27.97332 | -82.53578 | 23 ft | 12 kts | 107° |
| 2026-05-05 05:18 | 27.97321 | -82.53525 | 29 ft | 4 kts | 101° |
| 2026-05-05 05:18 | 27.97314 | -82.53451 | 32 ft | 13 kts | 94° |
| 2026-05-05 05:19 | 27.97310 | -82.53320 | 32 ft | 20 kts | 92° |
| 2026-05-05 05:19 | 27.97305 | -82.53151 | 32 ft | 21 kts | 91° |
| 2026-05-05 05:19 | 27.97300 | -82.52995 | 34 ft | 19 kts | 91° |
| 2026-05-05 05:19 | 27.97298 | -82.52854 | 35 ft | 17 kts | 92° |
| 2026-05-05 05:20 | 27.97266 | -82.52749 | 34 ft | 14 kts | 162° |
| 2026-05-05 05:20 | 27.97167 | -82.52751 | 35 ft | 15 kts | 182° |
| 2026-05-05 05:20 | 27.97067 | -82.52754 | 36 ft | 14 kts | 181° |
| 2026-05-05 05:20 | 27.96965 | -82.52758 | 37 ft | 15 kts | 181° |
| 2026-05-05 05:21 | 27.96857 | -82.52761 | 36 ft | 16 kts | 181° |
| 2026-05-05 05:21 | 27.96749 | -82.52755 | 35 ft | 14 kts | 140° |
| 2026-05-05 05:21 | 27.96776 | -82.52680 | 35 ft | 10 kts | 73° |
| 2026-05-05 05:21 | 27.96721 | -82.52664 | 35 ft | 8 kts | 162° |
| 2026-05-05 05:22 | 27.96715 | -82.52639 | 35 ft | 0 kts | 90° |
| 2026-05-05 05:22 | 27.96715 | -82.52638 | 35 ft | 0 kts | 89° |
| 2026-05-05 05:22 | 27.96715 | -82.52635 | 35 ft | 0 kts | 91° |
| 2026-05-05 05:22 | 27.96715 | -82.52633 | 35 ft | 0 kts | 91° |